<?xml version='1.0' encoding='UTF-8'?>
<gpx version="1.1" creator="https://www.komoot.de" xmlns="http://www.topografix.com/GPX/1/1" xmlns:xsi="http://www.w3.org/2001/XMLSchema-instance" xsi:schemaLocation="http://www.topografix.com/GPX/1/1 http://www.topografix.com/GPX/1/1/gpx.xsd">
  <metadata>
    <name>12.09.2026 Castrop-Rauxel Kulinarische Schnitzeljagd</name>
    <author>
      <link href="https://www.komoot.de">
        <text>komoot</text>
        <type>text/html</type>
      </link>
    </author>
  </metadata>
  <wpt lat="51.605282" lon="7.307779">
    <name>Haus Hölter</name>
    <sym>Restaurant</sym>
  </wpt>
  <wpt lat="51.600053" lon="7.294580">
    <name>360° LÆCKER</name>
    <sym>Shopping Center</sym>
  </wpt>
  <wpt lat="51.572084" lon="7.305691">
    <name>Eiscafe Dolomiti</name>
    <desc></desc>
    <sym>Restaurant</sym>
  </wpt>
  <wpt lat="51.547671" lon="7.311030">
    <name>Hitzefrei Eis</name>
    <sym>Restaurant</sym>
  </wpt>
  <wpt lat="51.547831" lon="7.312043">
    <name>Leuthold’s 1910</name>
    <sym>Restaurant</sym>
  </wpt>
  <wpt lat="51.543925" lon="7.312955">
    <name>Parkbad Süd</name>
    <sym>Restaurant</sym>
  </wpt>
  <wpt lat="51.567747" lon="7.340024">
    <name>Hof Dingebauer</name>
    <sym>Restaurant</sym>
  </wpt>
  <wpt lat="51.568332" lon="7.341154">
    <name>Hof Menken</name>
    <sym>Restaurant</sym>
  </wpt>
  <wpt lat="51.619433" lon="7.423866">
    <name>Deligio Fine Food</name>
    <desc></desc>
    <sym>Restaurant</sym>
  </wpt>
  <wpt lat="51.641294" lon="7.452000">
    <name>Vivamos Alpaka</name>
    <desc></desc>
    <sym>Shopping Center</sym>
  </wpt>
  <wpt lat="51.635992" lon="7.391428">
    <name>Milchhof Bilmann</name>
    <sym>Shopping Center</sym>
  </wpt>
  <wpt lat="51.623790" lon="7.396877">
    <name>Keks &amp; Krümel</name>
    <sym>Restaurant</sym>
  </wpt>
  <trk>
    <name>12.09.2026 Castrop-Rauxel Kulinarische Schnitzeljagd</name>
    <type>touring_bicycle</type>
    <trkseg>
      <trkpt lat="51.605282" lon="7.307779">
        <ele>57.878451</ele>
        <time>2026-08-31T09:29:01.234Z</time>
      </trkpt>
      <trkpt lat="51.605326" lon="7.307828">
        <ele>57.878451</ele>
        <time>2026-08-31T09:29:02.912Z</time>
      </trkpt>
      <trkpt lat="51.605404" lon="7.307770">
        <ele>57.878451</ele>
        <time>2026-08-31T09:29:05.799Z</time>
      </trkpt>
      <trkpt lat="51.605150" lon="7.307445">
        <ele>57.878451</ele>
        <time>2026-08-31T09:29:14.531Z</time>
      </trkpt>
      <trkpt lat="51.604941" lon="7.307095">
        <ele>57.878451</ele>
        <time>2026-08-31T09:29:22.813Z</time>
      </trkpt>
      <trkpt lat="51.604754" lon="7.306702">
        <ele>57.993013</ele>
        <time>2026-08-31T09:29:31.459Z</time>
      </trkpt>
      <trkpt lat="51.604548" lon="7.306124">
        <ele>58.266202</ele>
        <time>2026-08-31T09:29:42.858Z</time>
      </trkpt>
      <trkpt lat="51.604463" lon="7.305814">
        <ele>58.405119</ele>
        <time>2026-08-31T09:29:48.548Z</time>
      </trkpt>
      <trkpt lat="51.604366" lon="7.305326">
        <ele>58.615168</ele>
        <time>2026-08-31T09:29:56.733Z</time>
      </trkpt>
      <trkpt lat="51.603589" lon="7.299718">
        <ele>59.514929</ele>
        <time>2026-08-31T09:31:21.395Z</time>
      </trkpt>
      <trkpt lat="51.603452" lon="7.298869">
        <ele>59.633569</ele>
        <time>2026-08-31T09:31:34.433Z</time>
      </trkpt>
      <trkpt lat="51.603288" lon="7.297987">
        <ele>59.882074</ele>
        <time>2026-08-31T09:31:48.635Z</time>
      </trkpt>
      <trkpt lat="51.603190" lon="7.298040">
        <ele>59.936189</ele>
        <time>2026-08-31T09:31:51.165Z</time>
      </trkpt>
      <trkpt lat="51.603145" lon="7.297992">
        <ele>59.964445</ele>
        <time>2026-08-31T09:31:52.481Z</time>
      </trkpt>
      <trkpt lat="51.603135" lon="7.297929">
        <ele>59.985585</ele>
        <time>2026-08-31T09:31:53.469Z</time>
      </trkpt>
      <trkpt lat="51.602827" lon="7.298071">
        <ele>60.153287</ele>
        <time>2026-08-31T09:32:01.428Z</time>
      </trkpt>
      <trkpt lat="51.602123" lon="7.298534">
        <ele>60.551353</ele>
        <time>2026-08-31T09:32:20.482Z</time>
      </trkpt>
      <trkpt lat="51.601883" lon="7.298737">
        <ele>60.584002</ele>
        <time>2026-08-31T09:32:27.159Z</time>
      </trkpt>
      <trkpt lat="51.601659" lon="7.299003">
        <ele>60.535558</ele>
        <time>2026-08-31T09:32:33.689Z</time>
      </trkpt>
      <trkpt lat="51.601038" lon="7.299852">
        <ele>60.393763</ele>
        <time>2026-08-31T09:32:51.405Z</time>
      </trkpt>
      <trkpt lat="51.600991" lon="7.299759">
        <ele>60.380802</ele>
        <time>2026-08-31T09:32:52.930Z</time>
      </trkpt>
      <trkpt lat="51.600728" lon="7.299068">
        <ele>60.273481</ele>
        <time>2026-08-31T09:33:02.980Z</time>
      </trkpt>
      <trkpt lat="51.600701" lon="7.299000">
        <ele>60.230548</ele>
        <time>2026-08-31T09:33:03.944Z</time>
      </trkpt>
      <trkpt lat="51.600652" lon="7.298872">
        <ele>60.150564</ele>
        <time>2026-08-31T09:33:05.741Z</time>
      </trkpt>
      <trkpt lat="51.600290" lon="7.297938">
        <ele>59.564916</ele>
        <time>2026-08-31T09:33:18.789Z</time>
      </trkpt>
      <trkpt lat="51.600236" lon="7.297800">
        <ele>59.478152</ele>
        <time>2026-08-31T09:33:20.736Z</time>
      </trkpt>
      <trkpt lat="51.600116" lon="7.297490">
        <ele>59.283839</ele>
        <time>2026-08-31T09:33:25.110Z</time>
      </trkpt>
      <trkpt lat="51.600101" lon="7.297449">
        <ele>59.258526</ele>
        <time>2026-08-31T09:33:25.694Z</time>
      </trkpt>
      <trkpt lat="51.599891" lon="7.296887">
        <ele>58.909631</ele>
        <time>2026-08-31T09:33:33.701Z</time>
      </trkpt>
      <trkpt lat="51.599767" lon="7.296555">
        <ele>58.735721</ele>
        <time>2026-08-31T09:33:38.585Z</time>
      </trkpt>
      <trkpt lat="51.599894" lon="7.296430">
        <ele>58.683839</ele>
        <time>2026-08-31T09:33:42.650Z</time>
      </trkpt>
      <trkpt lat="51.600099" lon="7.296500">
        <ele>58.610797</ele>
        <time>2026-08-31T09:33:48.422Z</time>
      </trkpt>
      <trkpt lat="51.600331" lon="7.296273">
        <ele>58.516171</ele>
        <time>2026-08-31T09:33:56.094Z</time>
      </trkpt>
      <trkpt lat="51.600369" lon="7.296060">
        <ele>58.468192</ele>
        <time>2026-08-31T09:33:59.969Z</time>
      </trkpt>
      <trkpt lat="51.600283" lon="7.295831">
        <ele>58.410257</ele>
        <time>2026-08-31T09:34:04.566Z</time>
      </trkpt>
      <trkpt lat="51.600283" lon="7.295712">
        <ele>58.384494</ele>
        <time>2026-08-31T09:34:06.615Z</time>
      </trkpt>
      <trkpt lat="51.600476" lon="7.295519">
        <ele>58.305303</ele>
        <time>2026-08-31T09:34:12.943Z</time>
      </trkpt>
      <trkpt lat="51.600452" lon="7.295460">
        <ele>58.290034</ele>
        <time>2026-08-31T09:34:13.856Z</time>
      </trkpt>
      <trkpt lat="51.600289" lon="7.295035">
        <ele>58.181896</ele>
        <time>2026-08-31T09:34:20.537Z</time>
      </trkpt>
      <trkpt lat="51.600187" lon="7.294765">
        <ele>58.141145</ele>
        <time>2026-08-31T09:34:24.856Z</time>
      </trkpt>
      <trkpt lat="51.600133" lon="7.294662">
        <ele>58.158335</ele>
        <time>2026-08-31T09:34:26.702Z</time>
      </trkpt>
      <trkpt lat="51.600094" lon="7.294604">
        <ele>58.169236</ele>
        <time>2026-08-31T09:34:27.883Z</time>
      </trkpt>
      <trkpt lat="51.600053" lon="7.294580">
        <ele>58.178193</ele>
        <time>2026-08-31T09:34:28.852Z</time>
      </trkpt>
      <trkpt lat="51.600094" lon="7.294604">
        <ele>58.187151</ele>
        <time>2026-08-31T09:34:29.807Z</time>
      </trkpt>
      <trkpt lat="51.600133" lon="7.294662">
        <ele>58.198052</ele>
        <time>2026-08-31T09:34:30.992Z</time>
      </trkpt>
      <trkpt lat="51.600187" lon="7.294765">
        <ele>58.215242</ele>
        <time>2026-08-31T09:34:32.883Z</time>
      </trkpt>
      <trkpt lat="51.600289" lon="7.295035">
        <ele>58.255544</ele>
        <time>2026-08-31T09:34:37.291Z</time>
      </trkpt>
      <trkpt lat="51.600452" lon="7.295460">
        <ele>58.319246</ele>
        <time>2026-08-31T09:34:44.425Z</time>
      </trkpt>
      <trkpt lat="51.600476" lon="7.295519">
        <ele>58.328241</ele>
        <time>2026-08-31T09:34:45.461Z</time>
      </trkpt>
      <trkpt lat="51.600283" lon="7.295712">
        <ele>58.374890</ele>
        <time>2026-08-31T09:34:52.449Z</time>
      </trkpt>
      <trkpt lat="51.600283" lon="7.295831">
        <ele>58.390067</ele>
        <time>2026-08-31T09:34:54.719Z</time>
      </trkpt>
      <trkpt lat="51.600369" lon="7.296060">
        <ele>58.424195</ele>
        <time>2026-08-31T09:34:59.846Z</time>
      </trkpt>
      <trkpt lat="51.600331" lon="7.296273">
        <ele>58.452458</ele>
        <time>2026-08-31T09:35:04.060Z</time>
      </trkpt>
      <trkpt lat="51.600099" lon="7.296500">
        <ele>58.529068</ele>
        <time>2026-08-31T09:35:12.295Z</time>
      </trkpt>
      <trkpt lat="51.599894" lon="7.296430">
        <ele>58.684185</ele>
        <time>2026-08-31T09:35:18.819Z</time>
      </trkpt>
      <trkpt lat="51.599767" lon="7.296555">
        <ele>58.794366</ele>
        <time>2026-08-31T09:35:23.501Z</time>
      </trkpt>
      <trkpt lat="51.599891" lon="7.296887">
        <ele>58.972481</ele>
        <time>2026-08-31T09:35:29.428Z</time>
      </trkpt>
      <trkpt lat="51.600101" lon="7.297449">
        <ele>59.274025</ele>
        <time>2026-08-31T09:35:39.827Z</time>
      </trkpt>
      <trkpt lat="51.600116" lon="7.297490">
        <ele>59.295903</ele>
        <time>2026-08-31T09:35:40.578Z</time>
      </trkpt>
      <trkpt lat="51.600236" lon="7.297800">
        <ele>59.463844</ele>
        <time>2026-08-31T09:35:46.552Z</time>
      </trkpt>
      <trkpt lat="51.600290" lon="7.297938">
        <ele>59.538833</ele>
        <time>2026-08-31T09:35:49.213Z</time>
      </trkpt>
      <trkpt lat="51.600652" lon="7.298872">
        <ele>59.587785</ele>
        <time>2026-08-31T09:36:07.216Z</time>
      </trkpt>
      <trkpt lat="51.600701" lon="7.299000">
        <ele>59.508841</ele>
        <time>2026-08-31T09:36:09.624Z</time>
      </trkpt>
      <trkpt lat="51.600728" lon="7.299068">
        <ele>59.466467</ele>
        <time>2026-08-31T09:36:10.903Z</time>
      </trkpt>
      <trkpt lat="51.600991" lon="7.299759">
        <ele>59.040972</ele>
        <time>2026-08-31T09:36:21.950Z</time>
      </trkpt>
      <trkpt lat="51.600535" lon="7.300391">
        <ele>58.532366</ele>
        <time>2026-08-31T09:36:32.309Z</time>
      </trkpt>
      <trkpt lat="51.600446" lon="7.300515">
        <ele>58.432876</ele>
        <time>2026-08-31T09:36:34.369Z</time>
      </trkpt>
      <trkpt lat="51.600370" lon="7.300619">
        <ele>58.348563</ele>
        <time>2026-08-31T09:36:36.069Z</time>
      </trkpt>
      <trkpt lat="51.600257" lon="7.300764">
        <ele>58.205594</ele>
        <time>2026-08-31T09:36:38.529Z</time>
      </trkpt>
      <trkpt lat="51.600148" lon="7.300943">
        <ele>58.041646</ele>
        <time>2026-08-31T09:36:41.197Z</time>
      </trkpt>
      <trkpt lat="51.600046" lon="7.301207">
        <ele>57.838301</ele>
        <time>2026-08-31T09:36:44.644Z</time>
      </trkpt>
      <trkpt lat="51.599951" lon="7.301475">
        <ele>57.636483</ele>
        <time>2026-08-31T09:36:48.146Z</time>
      </trkpt>
      <trkpt lat="51.599851" lon="7.301625">
        <ele>57.492566</ele>
        <time>2026-08-31T09:36:50.667Z</time>
      </trkpt>
      <trkpt lat="51.599429" lon="7.302210">
        <ele>56.906185</ele>
        <time>2026-08-31T09:37:01.388Z</time>
      </trkpt>
      <trkpt lat="51.599223" lon="7.302429">
        <ele>56.646249</ele>
        <time>2026-08-31T09:37:06.697Z</time>
      </trkpt>
      <trkpt lat="51.598705" lon="7.302544">
        <ele>56.413149</ele>
        <time>2026-08-31T09:37:20.064Z</time>
      </trkpt>
      <trkpt lat="51.598291" lon="7.302605">
        <ele>56.407531</ele>
        <time>2026-08-31T09:37:29.318Z</time>
      </trkpt>
      <trkpt lat="51.597970" lon="7.302649">
        <ele>56.403177</ele>
        <time>2026-08-31T09:37:35.658Z</time>
      </trkpt>
      <trkpt lat="51.597525" lon="7.302730">
        <ele>56.397125</ele>
        <time>2026-08-31T09:37:44.985Z</time>
      </trkpt>
      <trkpt lat="51.597241" lon="7.302783">
        <ele>56.393261</ele>
        <time>2026-08-31T09:37:51.600Z</time>
      </trkpt>
      <trkpt lat="51.597069" lon="7.302815">
        <ele>56.511707</ele>
        <time>2026-08-31T09:37:55.909Z</time>
      </trkpt>
      <trkpt lat="51.596865" lon="7.302853">
        <ele>56.672576</ele>
        <time>2026-08-31T09:38:01.056Z</time>
      </trkpt>
      <trkpt lat="51.596727" lon="7.302875">
        <ele>56.781206</ele>
        <time>2026-08-31T09:38:04.653Z</time>
      </trkpt>
      <trkpt lat="51.596129" lon="7.302985">
        <ele>57.252695</ele>
        <time>2026-08-31T09:38:20.895Z</time>
      </trkpt>
      <trkpt lat="51.595634" lon="7.303059">
        <ele>57.642119</ele>
        <time>2026-08-31T09:38:34.571Z</time>
      </trkpt>
      <trkpt lat="51.595398" lon="7.303056">
        <ele>57.795792</ele>
        <time>2026-08-31T09:38:40.326Z</time>
      </trkpt>
      <trkpt lat="51.595150" lon="7.303048">
        <ele>57.748227</ele>
        <time>2026-08-31T09:38:45.930Z</time>
      </trkpt>
      <trkpt lat="51.594852" lon="7.303018">
        <ele>57.690972</ele>
        <time>2026-08-31T09:38:52.191Z</time>
      </trkpt>
      <trkpt lat="51.594564" lon="7.302984">
        <ele>57.635598</ele>
        <time>2026-08-31T09:38:58.098Z</time>
      </trkpt>
      <trkpt lat="51.594078" lon="7.302943">
        <ele>57.542277</ele>
        <time>2026-08-31T09:39:07.929Z</time>
      </trkpt>
      <trkpt lat="51.593952" lon="7.302942">
        <ele>57.518116</ele>
        <time>2026-08-31T09:39:10.540Z</time>
      </trkpt>
      <trkpt lat="51.593793" lon="7.302956">
        <ele>57.487581</ele>
        <time>2026-08-31T09:39:13.845Z</time>
      </trkpt>
      <trkpt lat="51.593731" lon="7.302965">
        <ele>57.475644</ele>
        <time>2026-08-31T09:39:15.140Z</time>
      </trkpt>
      <trkpt lat="51.593244" lon="7.303035">
        <ele>57.586036</ele>
        <time>2026-08-31T09:39:25.760Z</time>
      </trkpt>
      <trkpt lat="51.592940" lon="7.303078">
        <ele>57.686505</ele>
        <time>2026-08-31T09:39:32.869Z</time>
      </trkpt>
      <trkpt lat="51.592614" lon="7.303125">
        <ele>57.794260</ele>
        <time>2026-08-31T09:39:40.822Z</time>
      </trkpt>
      <trkpt lat="51.591075" lon="7.303377">
        <ele>58.367598</ele>
        <time>2026-08-31T09:40:19.151Z</time>
      </trkpt>
      <trkpt lat="51.590133" lon="7.303521">
        <ele>58.757564</ele>
        <time>2026-08-31T09:40:41.418Z</time>
      </trkpt>
      <trkpt lat="51.589961" lon="7.303545">
        <ele>58.785314</ele>
        <time>2026-08-31T09:40:45.306Z</time>
      </trkpt>
      <trkpt lat="51.589437" lon="7.303621">
        <ele>58.756281</ele>
        <time>2026-08-31T09:40:57.153Z</time>
      </trkpt>
      <trkpt lat="51.588906" lon="7.303697">
        <ele>58.726864</ele>
        <time>2026-08-31T09:41:09.007Z</time>
      </trkpt>
      <trkpt lat="51.588770" lon="7.303720">
        <ele>58.719317</ele>
        <time>2026-08-31T09:41:11.944Z</time>
      </trkpt>
      <trkpt lat="51.588353" lon="7.303786">
        <ele>58.696195</ele>
        <time>2026-08-31T09:41:20.785Z</time>
      </trkpt>
      <trkpt lat="51.587945" lon="7.303863">
        <ele>58.655327</ele>
        <time>2026-08-31T09:41:29.393Z</time>
      </trkpt>
      <trkpt lat="51.587362" lon="7.303971">
        <ele>58.589566</ele>
        <time>2026-08-31T09:41:41.791Z</time>
      </trkpt>
      <trkpt lat="51.587299" lon="7.303980">
        <ele>58.582479</ele>
        <time>2026-08-31T09:41:43.122Z</time>
      </trkpt>
      <trkpt lat="51.585457" lon="7.304288">
        <ele>58.793008</ele>
        <time>2026-08-31T09:42:25.179Z</time>
      </trkpt>
      <trkpt lat="51.585410" lon="7.304298">
        <ele>58.807062</ele>
        <time>2026-08-31T09:42:26.367Z</time>
      </trkpt>
      <trkpt lat="51.584435" lon="7.304403">
        <ele>59.070592</ele>
        <time>2026-08-31T09:42:50.330Z</time>
      </trkpt>
      <trkpt lat="51.583917" lon="7.304409">
        <ele>59.169823</ele>
        <time>2026-08-31T09:43:02.536Z</time>
      </trkpt>
      <trkpt lat="51.583438" lon="7.304411">
        <ele>59.261581</ele>
        <time>2026-08-31T09:43:13.345Z</time>
      </trkpt>
      <trkpt lat="51.583314" lon="7.304404">
        <ele>59.285349</ele>
        <time>2026-08-31T09:43:16.186Z</time>
      </trkpt>
      <trkpt lat="51.583178" lon="7.304397">
        <ele>59.311415</ele>
        <time>2026-08-31T09:43:19.273Z</time>
      </trkpt>
      <trkpt lat="51.582527" lon="7.304369">
        <ele>59.315005</ele>
        <time>2026-08-31T09:43:34.216Z</time>
      </trkpt>
      <trkpt lat="51.582005" lon="7.304351">
        <ele>59.238844</ele>
        <time>2026-08-31T09:43:46.598Z</time>
      </trkpt>
      <trkpt lat="51.581542" lon="7.304345">
        <ele>59.171304</ele>
        <time>2026-08-31T09:43:57.422Z</time>
      </trkpt>
      <trkpt lat="51.580922" lon="7.304331">
        <ele>59.010036</ele>
        <time>2026-08-31T09:44:10.673Z</time>
      </trkpt>
      <trkpt lat="51.580306" lon="7.304304">
        <ele>58.656646</ele>
        <time>2026-08-31T09:44:23.301Z</time>
      </trkpt>
      <trkpt lat="51.580158" lon="7.304298">
        <ele>58.571745</ele>
        <time>2026-08-31T09:44:26.313Z</time>
      </trkpt>
      <trkpt lat="51.579866" lon="7.304313">
        <ele>58.404205</ele>
        <time>2026-08-31T09:44:32.207Z</time>
      </trkpt>
      <trkpt lat="51.579714" lon="7.304343">
        <ele>58.316384</ele>
        <time>2026-08-31T09:44:35.240Z</time>
      </trkpt>
      <trkpt lat="51.579641" lon="7.304357">
        <ele>58.274224</ele>
        <time>2026-08-31T09:44:36.690Z</time>
      </trkpt>
      <trkpt lat="51.579591" lon="7.304208">
        <ele>58.213878</ele>
        <time>2026-08-31T09:44:38.744Z</time>
      </trkpt>
      <trkpt lat="51.579491" lon="7.304159">
        <ele>58.153931</ele>
        <time>2026-08-31T09:44:40.794Z</time>
      </trkpt>
      <trkpt lat="51.579409" lon="7.304216">
        <ele>58.102706</ele>
        <time>2026-08-31T09:44:42.607Z</time>
      </trkpt>
      <trkpt lat="51.579366" lon="7.304343">
        <ele>58.096323</ele>
        <time>2026-08-31T09:44:44.440Z</time>
      </trkpt>
      <trkpt lat="51.579295" lon="7.304318">
        <ele>58.138756</ele>
        <time>2026-08-31T09:44:45.992Z</time>
      </trkpt>
      <trkpt lat="51.579197" lon="7.304299">
        <ele>58.196386</ele>
        <time>2026-08-31T09:44:48.134Z</time>
      </trkpt>
      <trkpt lat="51.578913" lon="7.304272">
        <ele>58.362485</ele>
        <time>2026-08-31T09:44:54.897Z</time>
      </trkpt>
      <trkpt lat="51.578817" lon="7.304266">
        <ele>58.418576</ele>
        <time>2026-08-31T09:44:57.397Z</time>
      </trkpt>
      <trkpt lat="51.578615" lon="7.304262">
        <ele>58.536520</ele>
        <time>2026-08-31T09:45:02.851Z</time>
      </trkpt>
      <trkpt lat="51.578579" lon="7.304263">
        <ele>58.557541</ele>
        <time>2026-08-31T09:45:03.874Z</time>
      </trkpt>
      <trkpt lat="51.578522" lon="7.304265">
        <ele>58.590828</ele>
        <time>2026-08-31T09:45:05.493Z</time>
      </trkpt>
      <trkpt lat="51.578464" lon="7.304265">
        <ele>58.624691</ele>
        <time>2026-08-31T09:45:07.110Z</time>
      </trkpt>
      <trkpt lat="51.577409" lon="7.304245">
        <ele>59.125416</ele>
        <time>2026-08-31T09:45:34.381Z</time>
      </trkpt>
      <trkpt lat="51.577195" lon="7.304248">
        <ele>59.127293</ele>
        <time>2026-08-31T09:45:39.627Z</time>
      </trkpt>
      <trkpt lat="51.576005" lon="7.304207">
        <ele>59.137733</ele>
        <time>2026-08-31T09:46:04.647Z</time>
      </trkpt>
      <trkpt lat="51.575976" lon="7.304093">
        <ele>59.138404</ele>
        <time>2026-08-31T09:46:06.236Z</time>
      </trkpt>
      <trkpt lat="51.575910" lon="7.304030">
        <ele>59.139077</ele>
        <time>2026-08-31T09:46:07.831Z</time>
      </trkpt>
      <trkpt lat="51.575805" lon="7.304072">
        <ele>59.138352</ele>
        <time>2026-08-31T09:46:10.155Z</time>
      </trkpt>
      <trkpt lat="51.575762" lon="7.304232">
        <ele>59.136619</ele>
        <time>2026-08-31T09:46:12.523Z</time>
      </trkpt>
      <trkpt lat="51.575567" lon="7.304253">
        <ele>59.133493</ele>
        <time>2026-08-31T09:46:16.922Z</time>
      </trkpt>
      <trkpt lat="51.575529" lon="7.304264">
        <ele>59.132875</ele>
        <time>2026-08-31T09:46:17.789Z</time>
      </trkpt>
      <trkpt lat="51.575363" lon="7.304310">
        <ele>59.130180</ele>
        <time>2026-08-31T09:46:21.605Z</time>
      </trkpt>
      <trkpt lat="51.575213" lon="7.304365">
        <ele>59.127719</ele>
        <time>2026-08-31T09:46:25.149Z</time>
      </trkpt>
      <trkpt lat="51.574675" lon="7.304597">
        <ele>59.118809</ele>
        <time>2026-08-31T09:46:38.080Z</time>
      </trkpt>
      <trkpt lat="51.574529" lon="7.304667">
        <ele>59.116372</ele>
        <time>2026-08-31T09:46:41.403Z</time>
      </trkpt>
      <trkpt lat="51.574271" lon="7.304770">
        <ele>59.112119</ele>
        <time>2026-08-31T09:46:47.087Z</time>
      </trkpt>
      <trkpt lat="51.573841" lon="7.304959">
        <ele>58.916616</ele>
        <time>2026-08-31T09:46:56.721Z</time>
      </trkpt>
      <trkpt lat="51.573412" lon="7.305132">
        <ele>58.674531</ele>
        <time>2026-08-31T09:47:05.848Z</time>
      </trkpt>
      <trkpt lat="51.573321" lon="7.305172">
        <ele>58.622895</ele>
        <time>2026-08-31T09:47:07.750Z</time>
      </trkpt>
      <trkpt lat="51.573284" lon="7.305188">
        <ele>58.601924</ele>
        <time>2026-08-31T09:47:08.517Z</time>
      </trkpt>
      <trkpt lat="51.572799" lon="7.305410">
        <ele>58.325916</ele>
        <time>2026-08-31T09:47:18.471Z</time>
      </trkpt>
      <trkpt lat="51.572323" lon="7.305594">
        <ele>58.069178</ele>
        <time>2026-08-31T09:47:28.041Z</time>
      </trkpt>
      <trkpt lat="51.572084" lon="7.305691">
        <ele>57.956468</ele>
        <time>2026-08-31T09:47:33.107Z</time>
      </trkpt>
      <trkpt lat="51.571854" lon="7.305785">
        <ele>57.847957</ele>
        <time>2026-08-31T09:47:38.021Z</time>
      </trkpt>
      <trkpt lat="51.571704" lon="7.305844">
        <ele>57.777347</ele>
        <time>2026-08-31T09:47:41.099Z</time>
      </trkpt>
      <trkpt lat="51.571169" lon="7.306096">
        <ele>57.522441</ele>
        <time>2026-08-31T09:47:52.352Z</time>
      </trkpt>
      <trkpt lat="51.571023" lon="7.306160">
        <ele>57.453246</ele>
        <time>2026-08-31T09:47:55.527Z</time>
      </trkpt>
      <trkpt lat="51.570905" lon="7.306211">
        <ele>57.397376</ele>
        <time>2026-08-31T09:47:58.165Z</time>
      </trkpt>
      <trkpt lat="51.570802" lon="7.306255">
        <ele>57.348645</ele>
        <time>2026-08-31T09:48:00.471Z</time>
      </trkpt>
      <trkpt lat="51.570198" lon="7.306519">
        <ele>57.385378</ele>
        <time>2026-08-31T09:48:14.991Z</time>
      </trkpt>
      <trkpt lat="51.569548" lon="7.306769">
        <ele>57.488877</ele>
        <time>2026-08-31T09:48:30.459Z</time>
      </trkpt>
      <trkpt lat="51.569021" lon="7.307019">
        <ele>57.573965</ele>
        <time>2026-08-31T09:48:42.979Z</time>
      </trkpt>
      <trkpt lat="51.568533" lon="7.307199">
        <ele>57.836473</ele>
        <time>2026-08-31T09:48:54.438Z</time>
      </trkpt>
      <trkpt lat="51.568396" lon="7.307261">
        <ele>57.917363</ele>
        <time>2026-08-31T09:48:57.729Z</time>
      </trkpt>
      <trkpt lat="51.568348" lon="7.307283">
        <ele>57.945731</ele>
        <time>2026-08-31T09:48:58.878Z</time>
      </trkpt>
      <trkpt lat="51.568201" lon="7.307340">
        <ele>58.031675</ele>
        <time>2026-08-31T09:49:02.409Z</time>
      </trkpt>
      <trkpt lat="51.568112" lon="7.307376">
        <ele>58.083835</ele>
        <time>2026-08-31T09:49:04.556Z</time>
      </trkpt>
      <trkpt lat="51.568053" lon="7.307400">
        <ele>58.118425</ele>
        <time>2026-08-31T09:49:05.998Z</time>
      </trkpt>
      <trkpt lat="51.567751" lon="7.307523">
        <ele>58.295490</ele>
        <time>2026-08-31T09:49:13.502Z</time>
      </trkpt>
      <trkpt lat="51.567464" lon="7.307652">
        <ele>58.464862</ele>
        <time>2026-08-31T09:49:20.916Z</time>
      </trkpt>
      <trkpt lat="51.567410" lon="7.307676">
        <ele>58.496704</ele>
        <time>2026-08-31T09:49:22.403Z</time>
      </trkpt>
      <trkpt lat="51.567211" lon="7.307761">
        <ele>58.634214</ele>
        <time>2026-08-31T09:49:28.110Z</time>
      </trkpt>
      <trkpt lat="51.566958" lon="7.307869">
        <ele>59.114456</ele>
        <time>2026-08-31T09:49:35.643Z</time>
      </trkpt>
      <trkpt lat="51.566883" lon="7.307901">
        <ele>59.256816</ele>
        <time>2026-08-31T09:49:37.912Z</time>
      </trkpt>
      <trkpt lat="51.566799" lon="7.307936">
        <ele>59.416016</ele>
        <time>2026-08-31T09:49:40.435Z</time>
      </trkpt>
      <trkpt lat="51.566657" lon="7.307997">
        <ele>59.685672</ele>
        <time>2026-08-31T09:49:44.684Z</time>
      </trkpt>
      <trkpt lat="51.566597" lon="7.308019">
        <ele>59.798578</ele>
        <time>2026-08-31T09:49:46.464Z</time>
      </trkpt>
      <trkpt lat="51.566546" lon="7.308039">
        <ele>59.894887</ele>
        <time>2026-08-31T09:49:47.960Z</time>
      </trkpt>
      <trkpt lat="51.566339" lon="7.308109">
        <ele>60.282971</ele>
        <time>2026-08-31T09:49:54.127Z</time>
      </trkpt>
      <trkpt lat="51.566203" lon="7.308166">
        <ele>60.540819</ele>
        <time>2026-08-31T09:49:58.357Z</time>
      </trkpt>
      <trkpt lat="51.566066" lon="7.308224">
        <ele>60.800731</ele>
        <time>2026-08-31T09:50:02.710Z</time>
      </trkpt>
      <trkpt lat="51.565975" lon="7.308262">
        <ele>60.973222</ele>
        <time>2026-08-31T09:50:05.659Z</time>
      </trkpt>
      <trkpt lat="51.565823" lon="7.308323">
        <ele>61.260644</ele>
        <time>2026-08-31T09:50:10.593Z</time>
      </trkpt>
      <trkpt lat="51.565685" lon="7.308332">
        <ele>61.514040</ele>
        <time>2026-08-31T09:50:14.966Z</time>
      </trkpt>
      <trkpt lat="51.565566" lon="7.308310">
        <ele>61.733807</ele>
        <time>2026-08-31T09:50:18.784Z</time>
      </trkpt>
      <trkpt lat="51.565527" lon="7.308282">
        <ele>61.812163</ele>
        <time>2026-08-31T09:50:20.151Z</time>
      </trkpt>
      <trkpt lat="51.565414" lon="7.308320">
        <ele>62.042509</ele>
        <time>2026-08-31T09:50:23.874Z</time>
      </trkpt>
      <trkpt lat="51.565364" lon="7.308479">
        <ele>62.277278</ele>
        <time>2026-08-31T09:50:27.433Z</time>
      </trkpt>
      <trkpt lat="51.565285" lon="7.308517">
        <ele>62.452044</ele>
        <time>2026-08-31T09:50:30.018Z</time>
      </trkpt>
      <trkpt lat="51.564724" lon="7.308800">
        <ele>63.698184</ele>
        <time>2026-08-31T09:50:47.416Z</time>
      </trkpt>
      <trkpt lat="51.564262" lon="7.309039">
        <ele>64.726787</ele>
        <time>2026-08-31T09:51:02.254Z</time>
      </trkpt>
      <trkpt lat="51.564181" lon="7.309063">
        <ele>64.901356</ele>
        <time>2026-08-31T09:51:04.805Z</time>
      </trkpt>
      <trkpt lat="51.564101" lon="7.308976">
        <ele>65.106028</ele>
        <time>2026-08-31T09:51:07.805Z</time>
      </trkpt>
      <trkpt lat="51.563987" lon="7.309010">
        <ele>65.351771</ele>
        <time>2026-08-31T09:51:11.371Z</time>
      </trkpt>
      <trkpt lat="51.563944" lon="7.309095">
        <ele>65.496163</ele>
        <time>2026-08-31T09:51:13.459Z</time>
      </trkpt>
      <trkpt lat="51.563840" lon="7.309140">
        <ele>65.724759</ele>
        <time>2026-08-31T09:51:16.761Z</time>
      </trkpt>
      <trkpt lat="51.563635" lon="7.309205">
        <ele>66.186776</ele>
        <time>2026-08-31T09:51:23.172Z</time>
      </trkpt>
      <trkpt lat="51.562624" lon="7.309417">
        <ele>68.441214</ele>
        <time>2026-08-31T09:51:55.675Z</time>
      </trkpt>
      <trkpt lat="51.562412" lon="7.309451">
        <ele>68.912312</ele>
        <time>2026-08-31T09:52:02.107Z</time>
      </trkpt>
      <trkpt lat="51.562024" lon="7.309533">
        <ele>69.796768</ele>
        <time>2026-08-31T09:52:13.232Z</time>
      </trkpt>
      <trkpt lat="51.561622" lon="7.309602">
        <ele>70.895087</ele>
        <time>2026-08-31T09:52:26.325Z</time>
      </trkpt>
      <trkpt lat="51.561517" lon="7.309622">
        <ele>71.182334</ele>
        <time>2026-08-31T09:52:30.053Z</time>
      </trkpt>
      <trkpt lat="51.561367" lon="7.309647">
        <ele>71.592023</ele>
        <time>2026-08-31T09:52:35.174Z</time>
      </trkpt>
      <trkpt lat="51.561166" lon="7.309678">
        <ele>72.140587</ele>
        <time>2026-08-31T09:52:41.902Z</time>
      </trkpt>
      <trkpt lat="51.560986" lon="7.309707">
        <ele>72.632042</ele>
        <time>2026-08-31T09:52:47.925Z</time>
      </trkpt>
      <trkpt lat="51.560439" lon="7.309795">
        <ele>74.125498</ele>
        <time>2026-08-31T09:53:06.249Z</time>
      </trkpt>
      <trkpt lat="51.560404" lon="7.309801">
        <ele>74.221121</ele>
        <time>2026-08-31T09:53:07.384Z</time>
      </trkpt>
      <trkpt lat="51.560354" lon="7.309808">
        <ele>74.357471</ele>
        <time>2026-08-31T09:53:09.186Z</time>
      </trkpt>
      <trkpt lat="51.560141" lon="7.309855">
        <ele>74.878535</ele>
        <time>2026-08-31T09:53:17.047Z</time>
      </trkpt>
      <trkpt lat="51.559784" lon="7.309943">
        <ele>75.688559</ele>
        <time>2026-08-31T09:53:30.599Z</time>
      </trkpt>
      <trkpt lat="51.559433" lon="7.310019">
        <ele>76.482880</ele>
        <time>2026-08-31T09:53:42.403Z</time>
      </trkpt>
      <trkpt lat="51.559088" lon="7.310075">
        <ele>77.260573</ele>
        <time>2026-08-31T09:53:52.511Z</time>
      </trkpt>
      <trkpt lat="51.558983" lon="7.310098">
        <ele>77.498240</ele>
        <time>2026-08-31T09:53:55.440Z</time>
      </trkpt>
      <trkpt lat="51.558787" lon="7.310137">
        <ele>77.941178</ele>
        <time>2026-08-31T09:54:00.783Z</time>
      </trkpt>
      <trkpt lat="51.558761" lon="7.310142">
        <ele>77.999906</ele>
        <time>2026-08-31T09:54:01.482Z</time>
      </trkpt>
      <trkpt lat="51.558469" lon="7.310195">
        <ele>78.644027</ele>
        <time>2026-08-31T09:54:09.467Z</time>
      </trkpt>
      <trkpt lat="51.558294" lon="7.310149">
        <ele>78.908743</ele>
        <time>2026-08-31T09:54:14.345Z</time>
      </trkpt>
      <trkpt lat="51.558182" lon="7.310160">
        <ele>79.076255</ele>
        <time>2026-08-31T09:54:17.456Z</time>
      </trkpt>
      <trkpt lat="51.558063" lon="7.310183">
        <ele>79.255184</ele>
        <time>2026-08-31T09:54:20.780Z</time>
      </trkpt>
      <trkpt lat="51.557986" lon="7.310197">
        <ele>79.370867</ele>
        <time>2026-08-31T09:54:22.874Z</time>
      </trkpt>
      <trkpt lat="51.557788" lon="7.310235">
        <ele>79.668550</ele>
        <time>2026-08-31T09:54:28.226Z</time>
      </trkpt>
      <trkpt lat="51.557766" lon="7.310239">
        <ele>79.701602</ele>
        <time>2026-08-31T09:54:28.819Z</time>
      </trkpt>
      <trkpt lat="51.557679" lon="7.310256">
        <ele>79.832436</ele>
        <time>2026-08-31T09:54:31.171Z</time>
      </trkpt>
      <trkpt lat="51.557595" lon="7.310339">
        <ele>79.979609</ele>
        <time>2026-08-31T09:54:33.843Z</time>
      </trkpt>
      <trkpt lat="51.557238" lon="7.310433">
        <ele>80.519655</ele>
        <time>2026-08-31T09:54:44.081Z</time>
      </trkpt>
      <trkpt lat="51.557070" lon="7.310467">
        <ele>80.772434</ele>
        <time>2026-08-31T09:54:49.112Z</time>
      </trkpt>
      <trkpt lat="51.556523" lon="7.310578">
        <ele>81.562047</ele>
        <time>2026-08-31T09:55:05.765Z</time>
      </trkpt>
      <trkpt lat="51.556366" lon="7.310610">
        <ele>81.771604</ele>
        <time>2026-08-31T09:55:10.432Z</time>
      </trkpt>
      <trkpt lat="51.556068" lon="7.310670">
        <ele>82.169287</ele>
        <time>2026-08-31T09:55:19.033Z</time>
      </trkpt>
      <trkpt lat="51.555993" lon="7.310686">
        <ele>82.269469</ele>
        <time>2026-08-31T09:55:21.139Z</time>
      </trkpt>
      <trkpt lat="51.555752" lon="7.310735">
        <ele>82.591134</ele>
        <time>2026-08-31T09:55:27.735Z</time>
      </trkpt>
      <trkpt lat="51.555582" lon="7.310769">
        <ele>82.817977</ele>
        <time>2026-08-31T09:55:32.288Z</time>
      </trkpt>
      <trkpt lat="51.555517" lon="7.310781">
        <ele>82.904613</ele>
        <time>2026-08-31T09:55:34.036Z</time>
      </trkpt>
      <trkpt lat="51.555276" lon="7.310831">
        <ele>83.226382</ele>
        <time>2026-08-31T09:55:40.597Z</time>
      </trkpt>
      <trkpt lat="51.555064" lon="7.310875">
        <ele>83.509434</ele>
        <time>2026-08-31T09:55:46.223Z</time>
      </trkpt>
      <trkpt lat="51.554988" lon="7.310890">
        <ele>83.610826</ele>
        <time>2026-08-31T09:55:48.224Z</time>
      </trkpt>
      <trkpt lat="51.554934" lon="7.310901">
        <ele>83.681216</ele>
        <time>2026-08-31T09:55:49.605Z</time>
      </trkpt>
      <trkpt lat="51.554869" lon="7.310852">
        <ele>83.685277</ele>
        <time>2026-08-31T09:55:51.529Z</time>
      </trkpt>
      <trkpt lat="51.554698" lon="7.310884">
        <ele>83.695018</ele>
        <time>2026-08-31T09:55:56.033Z</time>
      </trkpt>
      <trkpt lat="51.554619" lon="7.310897">
        <ele>83.699511</ele>
        <time>2026-08-31T09:55:58.015Z</time>
      </trkpt>
      <trkpt lat="51.554433" lon="7.310914">
        <ele>83.710051</ele>
        <time>2026-08-31T09:56:02.767Z</time>
      </trkpt>
      <trkpt lat="51.554359" lon="7.310913">
        <ele>83.714238</ele>
        <time>2026-08-31T09:56:04.661Z</time>
      </trkpt>
      <trkpt lat="51.554214" lon="7.310899">
        <ele>83.722457</ele>
        <time>2026-08-31T09:56:08.393Z</time>
      </trkpt>
      <trkpt lat="51.553838" lon="7.310737">
        <ele>83.744480</ele>
        <time>2026-08-31T09:56:18.027Z</time>
      </trkpt>
      <trkpt lat="51.553716" lon="7.310653">
        <ele>83.751988</ele>
        <time>2026-08-31T09:56:21.146Z</time>
      </trkpt>
      <trkpt lat="51.553732" lon="7.310588">
        <ele>83.754448</ele>
        <time>2026-08-31T09:56:24.161Z</time>
      </trkpt>
      <trkpt lat="51.553336" lon="7.310214">
        <ele>83.780430</ele>
        <time>2026-08-31T09:56:37.024Z</time>
      </trkpt>
      <trkpt lat="51.553256" lon="7.310084">
        <ele>83.584687</ele>
        <time>2026-08-31T09:56:39.891Z</time>
      </trkpt>
      <trkpt lat="51.553078" lon="7.309760">
        <ele>82.823422</ele>
        <time>2026-08-31T09:56:46.452Z</time>
      </trkpt>
      <trkpt lat="51.552841" lon="7.309330">
        <ele>81.811662</ele>
        <time>2026-08-31T09:56:54.638Z</time>
      </trkpt>
      <trkpt lat="51.552787" lon="7.309330">
        <ele>81.658747</ele>
        <time>2026-08-31T09:56:55.837Z</time>
      </trkpt>
      <trkpt lat="51.552557" lon="7.309375">
        <ele>81.002639</ele>
        <time>2026-08-31T09:57:00.971Z</time>
      </trkpt>
      <trkpt lat="51.552414" lon="7.309531">
        <ele>80.513325</ele>
        <time>2026-08-31T09:57:04.826Z</time>
      </trkpt>
      <trkpt lat="51.552432" lon="7.309836">
        <ele>79.973872</ele>
        <time>2026-08-31T09:57:09.087Z</time>
      </trkpt>
      <trkpt lat="51.552307" lon="7.309854">
        <ele>79.618485</ele>
        <time>2026-08-31T09:57:11.863Z</time>
      </trkpt>
      <trkpt lat="51.552271" lon="7.309819">
        <ele>79.499361</ele>
        <time>2026-08-31T09:57:12.791Z</time>
      </trkpt>
      <trkpt lat="51.551898" lon="7.309887">
        <ele>78.491577</ele>
        <time>2026-08-31T09:57:20.980Z</time>
      </trkpt>
      <trkpt lat="51.551819" lon="7.309801">
        <ele>78.280354</ele>
        <time>2026-08-31T09:57:23.040Z</time>
      </trkpt>
      <trkpt lat="51.551742" lon="7.309817">
        <ele>78.108447</ele>
        <time>2026-08-31T09:57:24.705Z</time>
      </trkpt>
      <trkpt lat="51.551640" lon="7.309838">
        <ele>77.880761</ele>
        <time>2026-08-31T09:57:26.922Z</time>
      </trkpt>
      <trkpt lat="51.551520" lon="7.309976">
        <ele>77.554122</ele>
        <time>2026-08-31T09:57:30.124Z</time>
      </trkpt>
      <trkpt lat="51.551190" lon="7.310020">
        <ele>76.820946</ele>
        <time>2026-08-31T09:57:37.521Z</time>
      </trkpt>
      <trkpt lat="51.551143" lon="7.309999">
        <ele>76.712940</ele>
        <time>2026-08-31T09:57:38.678Z</time>
      </trkpt>
      <trkpt lat="51.550980" lon="7.310022">
        <ele>76.350647</ele>
        <time>2026-08-31T09:57:42.755Z</time>
      </trkpt>
      <trkpt lat="51.550916" lon="7.309991">
        <ele>76.202654</ele>
        <time>2026-08-31T09:57:44.529Z</time>
      </trkpt>
      <trkpt lat="51.550667" lon="7.310052">
        <ele>75.644971</ele>
        <time>2026-08-31T09:57:51.279Z</time>
      </trkpt>
      <trkpt lat="51.550612" lon="7.310128">
        <ele>75.484413</ele>
        <time>2026-08-31T09:57:53.329Z</time>
      </trkpt>
      <trkpt lat="51.550434" lon="7.310165">
        <ele>75.087016</ele>
        <time>2026-08-31T09:57:58.133Z</time>
      </trkpt>
      <trkpt lat="51.550366" lon="7.310162">
        <ele>74.936398</ele>
        <time>2026-08-31T09:57:59.458Z</time>
      </trkpt>
      <trkpt lat="51.550254" lon="7.310157">
        <ele>74.707621</ele>
        <time>2026-08-31T09:58:01.661Z</time>
      </trkpt>
      <trkpt lat="51.550197" lon="7.310162">
        <ele>74.711055</ele>
        <time>2026-08-31T09:58:02.787Z</time>
      </trkpt>
      <trkpt lat="51.550089" lon="7.310174">
        <ele>74.717565</ele>
        <time>2026-08-31T09:58:04.858Z</time>
      </trkpt>
      <trkpt lat="51.549850" lon="7.310219">
        <ele>74.732038</ele>
        <time>2026-08-31T09:58:09.614Z</time>
      </trkpt>
      <trkpt lat="51.549690" lon="7.310197">
        <ele>74.741696</ele>
        <time>2026-08-31T09:58:12.797Z</time>
      </trkpt>
      <trkpt lat="51.549633" lon="7.310143">
        <ele>74.745675</ele>
        <time>2026-08-31T09:58:14.138Z</time>
      </trkpt>
      <trkpt lat="51.549525" lon="7.310442">
        <ele>74.758607</ele>
        <time>2026-08-31T09:58:29.063Z</time>
      </trkpt>
      <trkpt lat="51.548763" lon="7.310382">
        <ele>74.804491</ele>
        <time>2026-08-31T09:58:54.347Z</time>
      </trkpt>
      <trkpt lat="51.548602" lon="7.310367">
        <ele>74.814190</ele>
        <time>2026-08-31T09:58:59.046Z</time>
      </trkpt>
      <trkpt lat="51.548493" lon="7.310355">
        <ele>74.841688</ele>
        <time>2026-08-31T09:59:02.242Z</time>
      </trkpt>
      <trkpt lat="51.548280" lon="7.310319">
        <ele>74.903810</ele>
        <time>2026-08-31T09:59:08.428Z</time>
      </trkpt>
      <trkpt lat="51.548220" lon="7.310390">
        <ele>74.925418</ele>
        <time>2026-08-31T09:59:10.599Z</time>
      </trkpt>
      <trkpt lat="51.548062" lon="7.310820">
        <ele>75.015507</ele>
        <time>2026-08-31T09:59:19.708Z</time>
      </trkpt>
      <trkpt lat="51.548043" lon="7.310882">
        <ele>75.027975</ele>
        <time>2026-08-31T09:59:20.973Z</time>
      </trkpt>
      <trkpt lat="51.547991" lon="7.311100">
        <ele>75.070090</ele>
        <time>2026-08-31T09:59:25.525Z</time>
      </trkpt>
      <trkpt lat="51.547671" lon="7.311030">
        <ele>75.163764</ele>
        <time>2026-08-31T09:59:36.013Z</time>
      </trkpt>
      <trkpt lat="51.547991" lon="7.311100">
        <ele>75.257438</ele>
        <time>2026-08-31T09:59:45.875Z</time>
      </trkpt>
      <trkpt lat="51.547983" lon="7.311291">
        <ele>75.291968</ele>
        <time>2026-08-31T09:59:49.358Z</time>
      </trkpt>
      <trkpt lat="51.548014" lon="7.311792">
        <ele>75.317225</ele>
        <time>2026-08-31T09:59:58.345Z</time>
      </trkpt>
      <trkpt lat="51.547839" lon="7.311848">
        <ele>75.294871</ele>
        <time>2026-08-31T10:00:03.770Z</time>
      </trkpt>
      <trkpt lat="51.547831" lon="7.312043">
        <ele>75.279646</ele>
        <time>2026-08-31T10:00:07.407Z</time>
      </trkpt>
      <trkpt lat="51.547839" lon="7.311848">
        <ele>75.264420</ele>
        <time>2026-08-31T10:00:10.920Z</time>
      </trkpt>
      <trkpt lat="51.547820" lon="7.311846">
        <ele>75.262035</ele>
        <time>2026-08-31T10:00:11.525Z</time>
      </trkpt>
      <trkpt lat="51.547701" lon="7.311837">
        <ele>75.247109</ele>
        <time>2026-08-31T10:00:15.013Z</time>
      </trkpt>
      <trkpt lat="51.547478" lon="7.311817">
        <ele>75.219128</ele>
        <time>2026-08-31T10:00:21.643Z</time>
      </trkpt>
      <trkpt lat="51.547184" lon="7.311772">
        <ele>75.182128</ele>
        <time>2026-08-31T10:00:30.379Z</time>
      </trkpt>
      <trkpt lat="51.547100" lon="7.311825">
        <ele>75.170823</ele>
        <time>2026-08-31T10:00:32.276Z</time>
      </trkpt>
      <trkpt lat="51.546725" lon="7.311881">
        <ele>75.123639</ele>
        <time>2026-08-31T10:00:39.990Z</time>
      </trkpt>
      <trkpt lat="51.546617" lon="7.311934">
        <ele>75.111936</ele>
        <time>2026-08-31T10:00:42.292Z</time>
      </trkpt>
      <trkpt lat="51.546553" lon="7.312003">
        <ele>75.113171</ele>
        <time>2026-08-31T10:00:43.856Z</time>
      </trkpt>
      <trkpt lat="51.546242" lon="7.312472">
        <ele>75.120005</ele>
        <time>2026-08-31T10:00:52.374Z</time>
      </trkpt>
      <trkpt lat="51.545932" lon="7.312752">
        <ele>75.125704</ele>
        <time>2026-08-31T10:00:59.858Z</time>
      </trkpt>
      <trkpt lat="51.545820" lon="7.312850">
        <ele>75.127748</ele>
        <time>2026-08-31T10:01:02.690Z</time>
      </trkpt>
      <trkpt lat="51.545685" lon="7.312960">
        <ele>75.130173</ele>
        <time>2026-08-31T10:01:06.025Z</time>
      </trkpt>
      <trkpt lat="51.545462" lon="7.313162">
        <ele>75.134276</ele>
        <time>2026-08-31T10:01:11.852Z</time>
      </trkpt>
      <trkpt lat="51.545327" lon="7.313268">
        <ele>75.136684</ele>
        <time>2026-08-31T10:01:15.487Z</time>
      </trkpt>
      <trkpt lat="51.544944" lon="7.313559">
        <ele>75.243598</ele>
        <time>2026-08-31T10:01:26.469Z</time>
      </trkpt>
      <trkpt lat="51.544823" lon="7.313714">
        <ele>75.329238</ele>
        <time>2026-08-31T10:01:30.668Z</time>
      </trkpt>
      <trkpt lat="51.544784" lon="7.313820">
        <ele>75.371639</ele>
        <time>2026-08-31T10:01:32.704Z</time>
      </trkpt>
      <trkpt lat="51.544683" lon="7.313773">
        <ele>75.429844</ele>
        <time>2026-08-31T10:01:35.582Z</time>
      </trkpt>
      <trkpt lat="51.544526" lon="7.313744">
        <ele>75.517327</ele>
        <time>2026-08-31T10:01:39.817Z</time>
      </trkpt>
      <trkpt lat="51.544287" lon="7.313824">
        <ele>75.652468</ele>
        <time>2026-08-31T10:01:46.187Z</time>
      </trkpt>
      <trkpt lat="51.544262" lon="7.313758">
        <ele>75.679073</ele>
        <time>2026-08-31T10:01:47.547Z</time>
      </trkpt>
      <trkpt lat="51.544207" lon="7.313611">
        <ele>75.738134</ele>
        <time>2026-08-31T10:01:50.512Z</time>
      </trkpt>
      <trkpt lat="51.543925" lon="7.312955">
        <ele>76.012680</ele>
        <time>2026-08-31T10:02:03.147Z</time>
      </trkpt>
      <trkpt lat="51.544207" lon="7.313611">
        <ele>76.174474</ele>
        <time>2026-08-31T10:02:15.160Z</time>
      </trkpt>
      <trkpt lat="51.544262" lon="7.313758">
        <ele>76.189449</ele>
        <time>2026-08-31T10:02:17.704Z</time>
      </trkpt>
      <trkpt lat="51.544287" lon="7.313824">
        <ele>76.196195</ele>
        <time>2026-08-31T10:02:18.847Z</time>
      </trkpt>
      <trkpt lat="51.544526" lon="7.313744">
        <ele>76.230461</ele>
        <time>2026-08-31T10:02:24.157Z</time>
      </trkpt>
      <trkpt lat="51.544631" lon="7.313945">
        <ele>76.253376</ele>
        <time>2026-08-31T10:02:28.802Z</time>
      </trkpt>
      <trkpt lat="51.544695" lon="7.314111">
        <ele>76.270425</ele>
        <time>2026-08-31T10:02:32.286Z</time>
      </trkpt>
      <trkpt lat="51.544806" lon="7.314734">
        <ele>76.326996</ele>
        <time>2026-08-31T10:02:44.394Z</time>
      </trkpt>
      <trkpt lat="51.544915" lon="7.315338">
        <ele>76.381896</ele>
        <time>2026-08-31T10:02:56.331Z</time>
      </trkpt>
      <trkpt lat="51.544987" lon="7.315292">
        <ele>76.442833</ele>
        <time>2026-08-31T10:02:59.314Z</time>
      </trkpt>
      <trkpt lat="51.544989" lon="7.315297">
        <ele>76.449638</ele>
        <time>2026-08-31T10:02:59.414Z</time>
      </trkpt>
      <trkpt lat="51.544979" lon="7.315410">
        <ele>76.580280</ele>
        <time>2026-08-31T10:03:01.218Z</time>
      </trkpt>
      <trkpt lat="51.544933" lon="7.315677">
        <ele>76.897399</ele>
        <time>2026-08-31T10:03:05.571Z</time>
      </trkpt>
      <trkpt lat="51.544933" lon="7.315995">
        <ele>77.261382</ele>
        <time>2026-08-31T10:03:10.634Z</time>
      </trkpt>
      <trkpt lat="51.545439" lon="7.316394">
        <ele>78.298620</ele>
        <time>2026-08-31T10:03:26.706Z</time>
      </trkpt>
      <trkpt lat="51.545630" lon="7.316604">
        <ele>78.724472</ele>
        <time>2026-08-31T10:03:34.014Z</time>
      </trkpt>
      <trkpt lat="51.545814" lon="7.316866">
        <ele>79.176812</ele>
        <time>2026-08-31T10:03:42.018Z</time>
      </trkpt>
      <trkpt lat="51.546449" lon="7.318100">
        <ele>81.787370</ele>
        <time>2026-08-31T10:04:17.159Z</time>
      </trkpt>
      <trkpt lat="51.546758" lon="7.318468">
        <ele>82.914671</ele>
        <time>2026-08-31T10:04:31.595Z</time>
      </trkpt>
      <trkpt lat="51.547057" lon="7.318651">
        <ele>83.852605</ele>
        <time>2026-08-31T10:04:42.454Z</time>
      </trkpt>
      <trkpt lat="51.547296" lon="7.318712">
        <ele>84.562059</ele>
        <time>2026-08-31T10:04:49.948Z</time>
      </trkpt>
      <trkpt lat="51.547532" lon="7.318758">
        <ele>85.225440</ele>
        <time>2026-08-31T10:04:56.841Z</time>
      </trkpt>
      <trkpt lat="51.547526" lon="7.318881">
        <ele>85.424051</ele>
        <time>2026-08-31T10:04:58.969Z</time>
      </trkpt>
      <trkpt lat="51.547572" lon="7.319049">
        <ele>85.719549</ele>
        <time>2026-08-31T10:05:02.896Z</time>
      </trkpt>
      <trkpt lat="51.547710" lon="7.319999">
        <ele>87.290006</ele>
        <time>2026-08-31T10:05:25.905Z</time>
      </trkpt>
      <trkpt lat="51.547771" lon="7.319991">
        <ele>87.448436</ele>
        <time>2026-08-31T10:05:27.938Z</time>
      </trkpt>
      <trkpt lat="51.547756" lon="7.320498">
        <ele>88.265514</ele>
        <time>2026-08-31T10:05:37.942Z</time>
      </trkpt>
      <trkpt lat="51.547750" lon="7.320632">
        <ele>88.481782</ele>
        <time>2026-08-31T10:05:40.545Z</time>
      </trkpt>
      <trkpt lat="51.547826" lon="7.320702">
        <ele>88.708504</ele>
        <time>2026-08-31T10:05:43.403Z</time>
      </trkpt>
      <trkpt lat="51.547915" lon="7.320797">
        <ele>88.985028</ele>
        <time>2026-08-31T10:05:46.944Z</time>
      </trkpt>
      <trkpt lat="51.548026" lon="7.320994">
        <ele>89.412966</ele>
        <time>2026-08-31T10:05:52.629Z</time>
      </trkpt>
      <trkpt lat="51.548061" lon="7.321059">
        <ele>89.551375</ele>
        <time>2026-08-31T10:05:54.491Z</time>
      </trkpt>
      <trkpt lat="51.548148" lon="7.321252">
        <ele>90.403610</ele>
        <time>2026-08-31T10:05:59.887Z</time>
      </trkpt>
      <trkpt lat="51.548170" lon="7.321251">
        <ele>90.547550</ele>
        <time>2026-08-31T10:06:00.706Z</time>
      </trkpt>
      <trkpt lat="51.548228" lon="7.321326">
        <ele>91.034305</ele>
        <time>2026-08-31T10:06:03.565Z</time>
      </trkpt>
      <trkpt lat="51.548223" lon="7.321422">
        <ele>91.426106</ele>
        <time>2026-08-31T10:06:05.838Z</time>
      </trkpt>
      <trkpt lat="51.548588" lon="7.322112">
        <ele>95.110314</ele>
        <time>2026-08-31T10:06:31.114Z</time>
      </trkpt>
      <trkpt lat="51.548952" lon="7.322790">
        <ele>98.753191</ele>
        <time>2026-08-31T10:07:00.210Z</time>
      </trkpt>
      <trkpt lat="51.549378" lon="7.323604">
        <ele>103.431233</ele>
        <time>2026-08-31T10:07:38.784Z</time>
      </trkpt>
      <trkpt lat="51.549463" lon="7.323786">
        <ele>104.549457</ele>
        <time>2026-08-31T10:07:47.465Z</time>
      </trkpt>
      <trkpt lat="51.549731" lon="7.324549">
        <ele>108.854550</ele>
        <time>2026-08-31T10:08:21.018Z</time>
      </trkpt>
      <trkpt lat="51.549844" lon="7.325390">
        <ele>113.081523</ele>
        <time>2026-08-31T10:08:50.303Z</time>
      </trkpt>
      <trkpt lat="51.550028" lon="7.326350">
        <ele>116.156973</ele>
        <time>2026-08-31T10:09:16.708Z</time>
      </trkpt>
      <trkpt lat="51.550078" lon="7.326490">
        <ele>116.339375</ele>
        <time>2026-08-31T10:09:20.221Z</time>
      </trkpt>
      <trkpt lat="51.550407" lon="7.327332">
        <ele>117.462871</ele>
        <time>2026-08-31T10:09:38.353Z</time>
      </trkpt>
      <trkpt lat="51.551032" lon="7.326694">
        <ele>118.807869</ele>
        <time>2026-08-31T10:09:54.530Z</time>
      </trkpt>
      <trkpt lat="51.551132" lon="7.326442">
        <ele>118.730818</ele>
        <time>2026-08-31T10:09:58.263Z</time>
      </trkpt>
      <trkpt lat="51.551146" lon="7.326377">
        <ele>118.691794</ele>
        <time>2026-08-31T10:09:59.110Z</time>
      </trkpt>
      <trkpt lat="51.551288" lon="7.326438">
        <ele>118.557701</ele>
        <time>2026-08-31T10:10:02.040Z</time>
      </trkpt>
      <trkpt lat="51.551439" lon="7.326320">
        <ele>118.404536</ele>
        <time>2026-08-31T10:10:05.389Z</time>
      </trkpt>
      <trkpt lat="51.551529" lon="7.326247">
        <ele>118.312574</ele>
        <time>2026-08-31T10:10:07.438Z</time>
      </trkpt>
      <trkpt lat="51.551812" lon="7.326126">
        <ele>118.045416</ele>
        <time>2026-08-31T10:10:13.492Z</time>
      </trkpt>
      <trkpt lat="51.552169" lon="7.326138">
        <ele>117.719643</ele>
        <time>2026-08-31T10:10:20.641Z</time>
      </trkpt>
      <trkpt lat="51.552485" lon="7.326241">
        <ele>117.425485</ele>
        <time>2026-08-31T10:10:26.760Z</time>
      </trkpt>
      <trkpt lat="51.552631" lon="7.326334">
        <ele>117.282218</ele>
        <time>2026-08-31T10:10:29.773Z</time>
      </trkpt>
      <trkpt lat="51.552753" lon="7.326475">
        <ele>116.795568</ele>
        <time>2026-08-31T10:10:32.600Z</time>
      </trkpt>
      <trkpt lat="51.552922" lon="7.326666">
        <ele>115.816879</ele>
        <time>2026-08-31T10:10:36.416Z</time>
      </trkpt>
      <trkpt lat="51.553233" lon="7.327112">
        <ele>113.842573</ele>
        <time>2026-08-31T10:10:43.714Z</time>
      </trkpt>
      <trkpt lat="51.553663" lon="7.327612">
        <ele>111.328446</ele>
        <time>2026-08-31T10:10:52.133Z</time>
      </trkpt>
      <trkpt lat="51.553930" lon="7.327853">
        <ele>109.877746</ele>
        <time>2026-08-31T10:10:56.773Z</time>
      </trkpt>
      <trkpt lat="51.554323" lon="7.328103">
        <ele>107.003364</ele>
        <time>2026-08-31T10:11:02.994Z</time>
      </trkpt>
      <trkpt lat="51.554560" lon="7.328134">
        <ele>104.694619</ele>
        <time>2026-08-31T10:11:06.419Z</time>
      </trkpt>
      <trkpt lat="51.554947" lon="7.328076">
        <ele>100.920770</ele>
        <time>2026-08-31T10:11:11.952Z</time>
      </trkpt>
      <trkpt lat="51.555467" lon="7.327946">
        <ele>95.811207</ele>
        <time>2026-08-31T10:11:19.354Z</time>
      </trkpt>
      <trkpt lat="51.555849" lon="7.327781">
        <ele>91.970759</ele>
        <time>2026-08-31T10:11:24.925Z</time>
      </trkpt>
      <trkpt lat="51.556733" lon="7.327226">
        <ele>84.871285</ele>
        <time>2026-08-31T10:11:38.608Z</time>
      </trkpt>
      <trkpt lat="51.558121" lon="7.326269">
        <ele>76.387353</ele>
        <time>2026-08-31T10:12:02.344Z</time>
      </trkpt>
      <trkpt lat="51.558233" lon="7.326231">
        <ele>76.046602</ele>
        <time>2026-08-31T10:12:04.460Z</time>
      </trkpt>
      <trkpt lat="51.559893" lon="7.325211">
        <ele>72.890987</ele>
        <time>2026-08-31T10:12:40.620Z</time>
      </trkpt>
      <trkpt lat="51.560110" lon="7.326278">
        <ele>73.009495</ele>
        <time>2026-08-31T10:12:57.497Z</time>
      </trkpt>
      <trkpt lat="51.560209" lon="7.326700">
        <ele>73.057109</ele>
        <time>2026-08-31T10:13:05.486Z</time>
      </trkpt>
      <trkpt lat="51.560376" lon="7.327211">
        <ele>73.691802</ele>
        <time>2026-08-31T10:13:17.043Z</time>
      </trkpt>
      <trkpt lat="51.560526" lon="7.327617">
        <ele>74.518351</ele>
        <time>2026-08-31T10:13:27.220Z</time>
      </trkpt>
      <trkpt lat="51.560715" lon="7.327988">
        <ele>75.357790</ele>
        <time>2026-08-31T10:13:38.206Z</time>
      </trkpt>
      <trkpt lat="51.560996" lon="7.328478">
        <ele>76.524467</ele>
        <time>2026-08-31T10:13:53.817Z</time>
      </trkpt>
      <trkpt lat="51.561485" lon="7.329125">
        <ele>78.139707</ele>
        <time>2026-08-31T10:14:15.610Z</time>
      </trkpt>
      <trkpt lat="51.561914" lon="7.329711">
        <ele>78.092198</ele>
        <time>2026-08-31T10:14:29.893Z</time>
      </trkpt>
      <trkpt lat="51.562436" lon="7.330420">
        <ele>78.034525</ele>
        <time>2026-08-31T10:14:43.068Z</time>
      </trkpt>
      <trkpt lat="51.562592" lon="7.330643">
        <ele>78.016908</ele>
        <time>2026-08-31T10:14:46.772Z</time>
      </trkpt>
      <trkpt lat="51.564539" lon="7.333306">
        <ele>76.195393</ele>
        <time>2026-08-31T10:15:36.484Z</time>
      </trkpt>
      <trkpt lat="51.564679" lon="7.333518">
        <ele>76.154909</ele>
        <time>2026-08-31T10:15:40.823Z</time>
      </trkpt>
      <trkpt lat="51.565156" lon="7.334320">
        <ele>76.009624</ele>
        <time>2026-08-31T10:15:56.819Z</time>
      </trkpt>
      <trkpt lat="51.565464" lon="7.334916">
        <ele>75.874699</ele>
        <time>2026-08-31T10:16:08.097Z</time>
      </trkpt>
      <trkpt lat="51.566035" lon="7.336164">
        <ele>74.779112</ele>
        <time>2026-08-31T10:16:27.460Z</time>
      </trkpt>
      <trkpt lat="51.567328" lon="7.339244">
        <ele>71.279362</ele>
        <time>2026-08-31T10:17:08.024Z</time>
      </trkpt>
      <trkpt lat="51.567540" lon="7.339719">
        <ele>70.789288</ele>
        <time>2026-08-31T10:17:15.164Z</time>
      </trkpt>
      <trkpt lat="51.567608" lon="7.339691">
        <ele>70.792162</ele>
        <time>2026-08-31T10:17:16.607Z</time>
      </trkpt>
      <trkpt lat="51.567747" lon="7.340024">
        <ele>70.802369</ele>
        <time>2026-08-31T10:17:21.668Z</time>
      </trkpt>
      <trkpt lat="51.568072" lon="7.340799">
        <ele>70.826160</ele>
        <time>2026-08-31T10:17:34.971Z</time>
      </trkpt>
      <trkpt lat="51.568128" lon="7.340931">
        <ele>70.830227</ele>
        <time>2026-08-31T10:17:37.317Z</time>
      </trkpt>
      <trkpt lat="51.568244" lon="7.341211">
        <ele>70.838790</ele>
        <time>2026-08-31T10:17:42.200Z</time>
      </trkpt>
      <trkpt lat="51.568332" lon="7.341154">
        <ele>70.842674</ele>
        <time>2026-08-31T10:17:45.162Z</time>
      </trkpt>
      <trkpt lat="51.568687" lon="7.341984">
        <ele>71.000574</ele>
        <time>2026-08-31T10:18:05.201Z</time>
      </trkpt>
      <trkpt lat="51.568634" lon="7.342117">
        <ele>71.067205</ele>
        <time>2026-08-31T10:18:08.344Z</time>
      </trkpt>
      <trkpt lat="51.568728" lon="7.342322">
        <ele>71.174646</ele>
        <time>2026-08-31T10:18:12.391Z</time>
      </trkpt>
      <trkpt lat="51.568925" lon="7.342646">
        <ele>71.365802</ele>
        <time>2026-08-31T10:18:19.745Z</time>
      </trkpt>
      <trkpt lat="51.569074" lon="7.343079">
        <ele>71.574539</ele>
        <time>2026-08-31T10:18:27.579Z</time>
      </trkpt>
      <trkpt lat="51.569266" lon="7.343393">
        <ele>71.760308</ele>
        <time>2026-08-31T10:18:34.437Z</time>
      </trkpt>
      <trkpt lat="51.569192" lon="7.343527">
        <ele>71.835906</ele>
        <time>2026-08-31T10:18:37.220Z</time>
      </trkpt>
      <trkpt lat="51.569464" lon="7.344328">
        <ele>72.145557</ele>
        <time>2026-08-31T10:18:50.814Z</time>
      </trkpt>
      <trkpt lat="51.570383" lon="7.348054">
        <ele>72.512442</ele>
        <time>2026-08-31T10:19:49.209Z</time>
      </trkpt>
      <trkpt lat="51.571199" lon="7.351107">
        <ele>71.455311</ele>
        <time>2026-08-31T10:20:30.941Z</time>
      </trkpt>
      <trkpt lat="51.571572" lon="7.352500">
        <ele>70.473148</ele>
        <time>2026-08-31T10:20:49.049Z</time>
      </trkpt>
      <trkpt lat="51.572251" lon="7.354003">
        <ele>68.681263</ele>
        <time>2026-08-31T10:21:09.906Z</time>
      </trkpt>
      <trkpt lat="51.572350" lon="7.354401">
        <ele>68.267849</ele>
        <time>2026-08-31T10:21:14.601Z</time>
      </trkpt>
      <trkpt lat="51.572399" lon="7.354713">
        <ele>68.053633</ele>
        <time>2026-08-31T10:21:18.159Z</time>
      </trkpt>
      <trkpt lat="51.572649" lon="7.356305">
        <ele>67.202790</ele>
        <time>2026-08-31T10:21:37.398Z</time>
      </trkpt>
      <trkpt lat="51.572720" lon="7.357167">
        <ele>66.752228</ele>
        <time>2026-08-31T10:21:49.031Z</time>
      </trkpt>
      <trkpt lat="51.572828" lon="7.359895">
        <ele>66.850176</ele>
        <time>2026-08-31T10:22:29.750Z</time>
      </trkpt>
      <trkpt lat="51.572836" lon="7.360049">
        <ele>66.861282</ele>
        <time>2026-08-31T10:22:31.739Z</time>
      </trkpt>
      <trkpt lat="51.572843" lon="7.360180">
        <ele>66.870731</ele>
        <time>2026-08-31T10:22:33.407Z</time>
      </trkpt>
      <trkpt lat="51.572880" lon="7.360307">
        <ele>66.839267</ele>
        <time>2026-08-31T10:22:35.163Z</time>
      </trkpt>
      <trkpt lat="51.572978" lon="7.360374">
        <ele>66.779634</ele>
        <time>2026-08-31T10:22:37.273Z</time>
      </trkpt>
      <trkpt lat="51.573305" lon="7.360542">
        <ele>66.587393</ele>
        <time>2026-08-31T10:22:43.869Z</time>
      </trkpt>
      <trkpt lat="51.574035" lon="7.360928">
        <ele>66.157055</ele>
        <time>2026-08-31T10:22:58.414Z</time>
      </trkpt>
      <trkpt lat="51.574450" lon="7.361231">
        <ele>65.901831</ele>
        <time>2026-08-31T10:23:08.181Z</time>
      </trkpt>
      <trkpt lat="51.574291" lon="7.361737">
        <ele>65.920777</ele>
        <time>2026-08-31T10:23:16.955Z</time>
      </trkpt>
      <trkpt lat="51.574051" lon="7.362255">
        <ele>65.996308</ele>
        <time>2026-08-31T10:23:27.698Z</time>
      </trkpt>
      <trkpt lat="51.573952" lon="7.362484">
        <ele>66.028919</ele>
        <time>2026-08-31T10:23:32.276Z</time>
      </trkpt>
      <trkpt lat="51.573800" lon="7.362961">
        <ele>66.091585</ele>
        <time>2026-08-31T10:23:40.857Z</time>
      </trkpt>
      <trkpt lat="51.573651" lon="7.363607">
        <ele>66.172138</ele>
        <time>2026-08-31T10:23:50.834Z</time>
      </trkpt>
      <trkpt lat="51.573541" lon="7.364460">
        <ele>65.781971</ele>
        <time>2026-08-31T10:24:01.986Z</time>
      </trkpt>
      <trkpt lat="51.573516" lon="7.364866">
        <ele>65.490866</ele>
        <time>2026-08-31T10:24:06.986Z</time>
      </trkpt>
      <trkpt lat="51.573555" lon="7.366154">
        <ele>64.570768</ele>
        <time>2026-08-31T10:24:22.278Z</time>
      </trkpt>
      <trkpt lat="51.573558" lon="7.366225">
        <ele>64.519992</ele>
        <time>2026-08-31T10:24:23.126Z</time>
      </trkpt>
      <trkpt lat="51.573590" lon="7.367477">
        <ele>63.817307</ele>
        <time>2026-08-31T10:24:38.829Z</time>
      </trkpt>
      <trkpt lat="51.573570" lon="7.367904">
        <ele>63.625564</ele>
        <time>2026-08-31T10:24:44.098Z</time>
      </trkpt>
      <trkpt lat="51.573477" lon="7.368855">
        <ele>63.194487</ele>
        <time>2026-08-31T10:24:56.168Z</time>
      </trkpt>
      <trkpt lat="51.573398" lon="7.369349">
        <ele>62.966078</ele>
        <time>2026-08-31T10:25:02.791Z</time>
      </trkpt>
      <trkpt lat="51.573283" lon="7.370006">
        <ele>62.862492</ele>
        <time>2026-08-31T10:25:11.525Z</time>
      </trkpt>
      <trkpt lat="51.573084" lon="7.371121">
        <ele>62.915002</ele>
        <time>2026-08-31T10:25:26.526Z</time>
      </trkpt>
      <trkpt lat="51.573009" lon="7.371596">
        <ele>62.937185</ele>
        <time>2026-08-31T10:25:33.832Z</time>
      </trkpt>
      <trkpt lat="51.572986" lon="7.371775">
        <ele>62.945459</ele>
        <time>2026-08-31T10:25:36.682Z</time>
      </trkpt>
      <trkpt lat="51.572972" lon="7.371881">
        <ele>62.950364</ele>
        <time>2026-08-31T10:25:38.373Z</time>
      </trkpt>
      <trkpt lat="51.572920" lon="7.372333">
        <ele>62.971171</ele>
        <time>2026-08-31T10:25:45.560Z</time>
      </trkpt>
      <trkpt lat="51.572797" lon="7.373351">
        <ele>63.407167</ele>
        <time>2026-08-31T10:26:01.846Z</time>
      </trkpt>
      <trkpt lat="51.572660" lon="7.374548">
        <ele>63.958685</ele>
        <time>2026-08-31T10:26:21.842Z</time>
      </trkpt>
      <trkpt lat="51.572587" lon="7.375085">
        <ele>64.207770</ele>
        <time>2026-08-31T10:26:29.734Z</time>
      </trkpt>
      <trkpt lat="51.572481" lon="7.375985">
        <ele>64.289016</ele>
        <time>2026-08-31T10:26:43.172Z</time>
      </trkpt>
      <trkpt lat="51.572421" lon="7.376465">
        <ele>64.290825</ele>
        <time>2026-08-31T10:26:50.200Z</time>
      </trkpt>
      <trkpt lat="51.572390" lon="7.376736">
        <ele>64.291843</ele>
        <time>2026-08-31T10:26:53.943Z</time>
      </trkpt>
      <trkpt lat="51.572330" lon="7.377257">
        <ele>64.293800</ele>
        <time>2026-08-31T10:27:01.158Z</time>
      </trkpt>
      <trkpt lat="51.572319" lon="7.377366">
        <ele>64.294208</ele>
        <time>2026-08-31T10:27:02.775Z</time>
      </trkpt>
      <trkpt lat="51.572290" lon="7.377619">
        <ele>64.295159</ele>
        <time>2026-08-31T10:27:06.355Z</time>
      </trkpt>
      <trkpt lat="51.572441" lon="7.377695">
        <ele>64.296099</ele>
        <time>2026-08-31T10:27:09.753Z</time>
      </trkpt>
      <trkpt lat="51.572470" lon="7.377712">
        <ele>64.296283</ele>
        <time>2026-08-31T10:27:10.362Z</time>
      </trkpt>
      <trkpt lat="51.572830" lon="7.377976">
        <ele>63.941237</ele>
        <time>2026-08-31T10:27:18.581Z</time>
      </trkpt>
      <trkpt lat="51.572902" lon="7.378029">
        <ele>63.841055</ele>
        <time>2026-08-31T10:27:20.201Z</time>
      </trkpt>
      <trkpt lat="51.573265" lon="7.378373">
        <ele>63.308015</ele>
        <time>2026-08-31T10:27:28.270Z</time>
      </trkpt>
      <trkpt lat="51.573589" lon="7.378836">
        <ele>62.759723</ele>
        <time>2026-08-31T10:27:36.066Z</time>
      </trkpt>
      <trkpt lat="51.574177" lon="7.380054">
        <ele>61.692542</ele>
        <time>2026-08-31T10:27:53.189Z</time>
      </trkpt>
      <trkpt lat="51.574854" lon="7.381509">
        <ele>60.702126</ele>
        <time>2026-08-31T10:28:14.802Z</time>
      </trkpt>
      <trkpt lat="51.575100" lon="7.382068">
        <ele>60.606669</ele>
        <time>2026-08-31T10:28:24.681Z</time>
      </trkpt>
      <trkpt lat="51.575162" lon="7.382294">
        <ele>60.796367</ele>
        <time>2026-08-31T10:28:28.548Z</time>
      </trkpt>
      <trkpt lat="51.575196" lon="7.382485">
        <ele>60.948931</ele>
        <time>2026-08-31T10:28:31.826Z</time>
      </trkpt>
      <trkpt lat="51.575247" lon="7.383156">
        <ele>61.468021</ele>
        <time>2026-08-31T10:28:43.874Z</time>
      </trkpt>
      <trkpt lat="51.575239" lon="7.383370">
        <ele>61.632645</ele>
        <time>2026-08-31T10:28:47.875Z</time>
      </trkpt>
      <trkpt lat="51.575211" lon="7.383711">
        <ele>61.896770</ele>
        <time>2026-08-31T10:28:54.264Z</time>
      </trkpt>
      <trkpt lat="51.575161" lon="7.384503">
        <ele>62.508066</ele>
        <time>2026-08-31T10:29:08.724Z</time>
      </trkpt>
      <trkpt lat="51.575191" lon="7.385163">
        <ele>62.751092</ele>
        <time>2026-08-31T10:29:19.814Z</time>
      </trkpt>
      <trkpt lat="51.575228" lon="7.385489">
        <ele>62.812629</ele>
        <time>2026-08-31T10:29:25.085Z</time>
      </trkpt>
      <trkpt lat="51.575237" lon="7.385590">
        <ele>62.831576</ele>
        <time>2026-08-31T10:29:26.684Z</time>
      </trkpt>
      <trkpt lat="51.575292" lon="7.386276">
        <ele>62.960017</ele>
        <time>2026-08-31T10:29:36.784Z</time>
      </trkpt>
      <trkpt lat="51.575294" lon="7.386302">
        <ele>62.964882</ele>
        <time>2026-08-31T10:29:37.139Z</time>
      </trkpt>
      <trkpt lat="51.575311" lon="7.386547">
        <ele>63.010659</ele>
        <time>2026-08-31T10:29:40.424Z</time>
      </trkpt>
      <trkpt lat="51.575514" lon="7.386544">
        <ele>63.071316</ele>
        <time>2026-08-31T10:29:44.659Z</time>
      </trkpt>
      <trkpt lat="51.575852" lon="7.386604">
        <ele>63.172919</ele>
        <time>2026-08-31T10:29:51.603Z</time>
      </trkpt>
      <trkpt lat="51.575870" lon="7.386610">
        <ele>63.178412</ele>
        <time>2026-08-31T10:29:51.978Z</time>
      </trkpt>
      <trkpt lat="51.576005" lon="7.386658">
        <ele>63.218420</ele>
        <time>2026-08-31T10:29:54.804Z</time>
      </trkpt>
      <trkpt lat="51.576069" lon="7.386679">
        <ele>63.236326</ele>
        <time>2026-08-31T10:29:56.173Z</time>
      </trkpt>
      <trkpt lat="51.576381" lon="7.386783">
        <ele>63.323677</ele>
        <time>2026-08-31T10:30:02.906Z</time>
      </trkpt>
      <trkpt lat="51.576433" lon="7.386798">
        <ele>63.338160</ele>
        <time>2026-08-31T10:30:04.026Z</time>
      </trkpt>
      <trkpt lat="51.576755" lon="7.386875">
        <ele>63.427405</ele>
        <time>2026-08-31T10:30:11.293Z</time>
      </trkpt>
      <trkpt lat="51.577062" lon="7.386907">
        <ele>63.511745</ele>
        <time>2026-08-31T10:30:18.619Z</time>
      </trkpt>
      <trkpt lat="51.577631" lon="7.386874">
        <ele>63.667836</ele>
        <time>2026-08-31T10:30:33.034Z</time>
      </trkpt>
      <trkpt lat="51.577857" lon="7.386895">
        <ele>63.761501</ele>
        <time>2026-08-31T10:30:38.948Z</time>
      </trkpt>
      <trkpt lat="51.577962" lon="7.386918">
        <ele>63.818493</ele>
        <time>2026-08-31T10:30:41.723Z</time>
      </trkpt>
      <trkpt lat="51.578244" lon="7.387011">
        <ele>63.973308</ele>
        <time>2026-08-31T10:30:49.387Z</time>
      </trkpt>
      <trkpt lat="51.578391" lon="7.387081">
        <ele>64.055756</ele>
        <time>2026-08-31T10:30:53.412Z</time>
      </trkpt>
      <trkpt lat="51.578511" lon="7.387182">
        <ele>64.128588</ele>
        <time>2026-08-31T10:30:56.904Z</time>
      </trkpt>
      <trkpt lat="51.578645" lon="7.387371">
        <ele>64.224420</ele>
        <time>2026-08-31T10:31:01.392Z</time>
      </trkpt>
      <trkpt lat="51.578728" lon="7.387535">
        <ele>64.295109</ele>
        <time>2026-08-31T10:31:04.633Z</time>
      </trkpt>
      <trkpt lat="51.578825" lon="7.387437">
        <ele>64.356707</ele>
        <time>2026-08-31T10:31:07.411Z</time>
      </trkpt>
      <trkpt lat="51.578907" lon="7.387430">
        <ele>64.400870</ele>
        <time>2026-08-31T10:31:09.363Z</time>
      </trkpt>
      <trkpt lat="51.578939" lon="7.387446">
        <ele>64.418891</ele>
        <time>2026-08-31T10:31:10.151Z</time>
      </trkpt>
      <trkpt lat="51.579190" lon="7.387662">
        <ele>64.571973</ele>
        <time>2026-08-31T10:31:16.702Z</time>
      </trkpt>
      <trkpt lat="51.581693" lon="7.389660">
        <ele>63.928028</ele>
        <time>2026-08-31T10:32:15.578Z</time>
      </trkpt>
      <trkpt lat="51.582203" lon="7.390110">
        <ele>63.760495</ele>
        <time>2026-08-31T10:32:27.862Z</time>
      </trkpt>
      <trkpt lat="51.582669" lon="7.390609">
        <ele>63.708257</ele>
        <time>2026-08-31T10:32:39.691Z</time>
      </trkpt>
      <trkpt lat="51.582697" lon="7.390504">
        <ele>63.734338</ele>
        <time>2026-08-31T10:32:41.736Z</time>
      </trkpt>
      <trkpt lat="51.582774" lon="7.390606">
        <ele>63.770974</ele>
        <time>2026-08-31T10:32:43.847Z</time>
      </trkpt>
      <trkpt lat="51.582800" lon="7.390911">
        <ele>63.841247</ele>
        <time>2026-08-31T10:32:47.922Z</time>
      </trkpt>
      <trkpt lat="51.582894" lon="7.392634">
        <ele>64.236060</ele>
        <time>2026-08-31T10:33:14.040Z</time>
      </trkpt>
      <trkpt lat="51.582904" lon="7.392757">
        <ele>64.264376</ele>
        <time>2026-08-31T10:33:16.147Z</time>
      </trkpt>
      <trkpt lat="51.582917" lon="7.392917">
        <ele>64.301209</ele>
        <time>2026-08-31T10:33:18.804Z</time>
      </trkpt>
      <trkpt lat="51.583014" lon="7.392896">
        <ele>64.336362</ele>
        <time>2026-08-31T10:33:21.451Z</time>
      </trkpt>
      <trkpt lat="51.583098" lon="7.392885">
        <ele>64.366473</ele>
        <time>2026-08-31T10:33:23.810Z</time>
      </trkpt>
      <trkpt lat="51.583377" lon="7.392835">
        <ele>64.466774</ele>
        <time>2026-08-31T10:33:31.533Z</time>
      </trkpt>
      <trkpt lat="51.584280" lon="7.392769">
        <ele>64.789743</ele>
        <time>2026-08-31T10:33:53.047Z</time>
      </trkpt>
      <trkpt lat="51.584735" lon="7.392736">
        <ele>64.946650</ele>
        <time>2026-08-31T10:34:02.980Z</time>
      </trkpt>
      <trkpt lat="51.585018" lon="7.392715">
        <ele>64.742978</ele>
        <time>2026-08-31T10:34:08.850Z</time>
      </trkpt>
      <trkpt lat="51.585104" lon="7.392709">
        <ele>64.681092</ele>
        <time>2026-08-31T10:34:10.573Z</time>
      </trkpt>
      <trkpt lat="51.585878" lon="7.392670">
        <ele>64.124371</ele>
        <time>2026-08-31T10:34:25.193Z</time>
      </trkpt>
      <trkpt lat="51.586222" lon="7.392643">
        <ele>63.876766</ele>
        <time>2026-08-31T10:34:31.776Z</time>
      </trkpt>
      <trkpt lat="51.586569" lon="7.392584">
        <ele>63.706699</ele>
        <time>2026-08-31T10:34:38.870Z</time>
      </trkpt>
      <trkpt lat="51.587300" lon="7.392371">
        <ele>64.540662</ele>
        <time>2026-08-31T10:34:56.115Z</time>
      </trkpt>
      <trkpt lat="51.587556" lon="7.392349">
        <ele>64.828458</ele>
        <time>2026-08-31T10:35:02.952Z</time>
      </trkpt>
      <trkpt lat="51.588196" lon="7.392308">
        <ele>65.547494</ele>
        <time>2026-08-31T10:35:22.534Z</time>
      </trkpt>
      <trkpt lat="51.590081" lon="7.392190">
        <ele>70.026001</ele>
        <time>2026-08-31T10:36:25.821Z</time>
      </trkpt>
      <trkpt lat="51.590531" lon="7.392233">
        <ele>70.127463</ele>
        <time>2026-08-31T10:36:37.503Z</time>
      </trkpt>
      <trkpt lat="51.591285" lon="7.392402">
        <ele>70.189629</ele>
        <time>2026-08-31T10:36:52.438Z</time>
      </trkpt>
      <trkpt lat="51.591822" lon="7.392539">
        <ele>70.234028</ele>
        <time>2026-08-31T10:37:02.943Z</time>
      </trkpt>
      <trkpt lat="51.594367" lon="7.393150">
        <ele>72.312190</ele>
        <time>2026-08-31T10:38:10.452Z</time>
      </trkpt>
      <trkpt lat="51.595000" lon="7.393283">
        <ele>72.875318</ele>
        <time>2026-08-31T10:38:27.872Z</time>
      </trkpt>
      <trkpt lat="51.595723" lon="7.393377">
        <ele>73.267692</ele>
        <time>2026-08-31T10:38:45.468Z</time>
      </trkpt>
      <trkpt lat="51.596849" lon="7.393433">
        <ele>73.226856</ele>
        <time>2026-08-31T10:39:09.687Z</time>
      </trkpt>
      <trkpt lat="51.597192" lon="7.393428">
        <ele>73.214422</ele>
        <time>2026-08-31T10:39:16.655Z</time>
      </trkpt>
      <trkpt lat="51.598183" lon="7.393383">
        <ele>73.809607</ele>
        <time>2026-08-31T10:39:39.180Z</time>
      </trkpt>
      <trkpt lat="51.600999" lon="7.392971">
        <ele>76.551079</ele>
        <time>2026-08-31T10:40:57.251Z</time>
      </trkpt>
      <trkpt lat="51.601019" lon="7.393056">
        <ele>76.542930</ele>
        <time>2026-08-31T10:40:58.665Z</time>
      </trkpt>
      <trkpt lat="51.601161" lon="7.393034">
        <ele>76.522339</ele>
        <time>2026-08-31T10:41:02.066Z</time>
      </trkpt>
      <trkpt lat="51.603162" lon="7.392730">
        <ele>76.061293</ele>
        <time>2026-08-31T10:41:43.107Z</time>
      </trkpt>
      <trkpt lat="51.603767" lon="7.392671">
        <ele>75.792824</ele>
        <time>2026-08-31T10:41:55.505Z</time>
      </trkpt>
      <trkpt lat="51.604547" lon="7.392686">
        <ele>75.510970</ele>
        <time>2026-08-31T10:42:11.924Z</time>
      </trkpt>
      <trkpt lat="51.604969" lon="7.392734">
        <ele>75.491934</ele>
        <time>2026-08-31T10:42:21.033Z</time>
      </trkpt>
      <trkpt lat="51.605031" lon="7.392867">
        <ele>75.487286</ele>
        <time>2026-08-31T10:42:23.299Z</time>
      </trkpt>
      <trkpt lat="51.605107" lon="7.392865">
        <ele>75.483866</ele>
        <time>2026-08-31T10:42:24.971Z</time>
      </trkpt>
      <trkpt lat="51.605127" lon="7.393060">
        <ele>75.478343</ele>
        <time>2026-08-31T10:42:27.669Z</time>
      </trkpt>
      <trkpt lat="51.605318" lon="7.393622">
        <ele>75.460439</ele>
        <time>2026-08-31T10:42:36.618Z</time>
      </trkpt>
      <trkpt lat="51.605734" lon="7.395078">
        <ele>75.411663</ele>
        <time>2026-08-31T10:42:59.416Z</time>
      </trkpt>
      <trkpt lat="51.606325" lon="7.397131">
        <ele>75.334749</ele>
        <time>2026-08-31T10:43:30.222Z</time>
      </trkpt>
      <trkpt lat="51.606816" lon="7.398858">
        <ele>75.244561</ele>
        <time>2026-08-31T10:43:54.747Z</time>
      </trkpt>
      <trkpt lat="51.607606" lon="7.401780">
        <ele>76.192697</ele>
        <time>2026-08-31T10:44:42.759Z</time>
      </trkpt>
      <trkpt lat="51.607689" lon="7.402154">
        <ele>76.361305</ele>
        <time>2026-08-31T10:44:49.497Z</time>
      </trkpt>
      <trkpt lat="51.607800" lon="7.403041">
        <ele>76.972782</ele>
        <time>2026-08-31T10:45:05.152Z</time>
      </trkpt>
      <trkpt lat="51.607936" lon="7.405448">
        <ele>78.738078</ele>
        <time>2026-08-31T10:45:45.647Z</time>
      </trkpt>
      <trkpt lat="51.607948" lon="7.405629">
        <ele>78.865772</ele>
        <time>2026-08-31T10:45:48.538Z</time>
      </trkpt>
      <trkpt lat="51.608006" lon="7.405637">
        <ele>78.931527</ele>
        <time>2026-08-31T10:45:50.900Z</time>
      </trkpt>
      <trkpt lat="51.608116" lon="7.406860">
        <ele>79.798417</ele>
        <time>2026-08-31T10:46:10.924Z</time>
      </trkpt>
      <trkpt lat="51.608276" lon="7.407949">
        <ele>80.583441</ele>
        <time>2026-08-31T10:46:29.376Z</time>
      </trkpt>
      <trkpt lat="51.608298" lon="7.408024">
        <ele>80.643660</ele>
        <time>2026-08-31T10:46:30.844Z</time>
      </trkpt>
      <trkpt lat="51.608341" lon="7.408067">
        <ele>80.703099</ele>
        <time>2026-08-31T10:46:32.265Z</time>
      </trkpt>
      <trkpt lat="51.608400" lon="7.408068">
        <ele>80.772386</ele>
        <time>2026-08-31T10:46:33.934Z</time>
      </trkpt>
      <trkpt lat="51.608426" lon="7.408143">
        <ele>80.835025</ele>
        <time>2026-08-31T10:46:35.485Z</time>
      </trkpt>
      <trkpt lat="51.608713" lon="7.407727">
        <ele>81.288475</ele>
        <time>2026-08-31T10:46:46.942Z</time>
      </trkpt>
      <trkpt lat="51.608756" lon="7.407867">
        <ele>81.402376</ele>
        <time>2026-08-31T10:46:50.154Z</time>
      </trkpt>
      <trkpt lat="51.608868" lon="7.409657">
        <ele>82.695369</ele>
        <time>2026-08-31T10:47:23.002Z</time>
      </trkpt>
      <trkpt lat="51.608948" lon="7.410946">
        <ele>82.141934</ele>
        <time>2026-08-31T10:47:42.369Z</time>
      </trkpt>
      <trkpt lat="51.609074" lon="7.412982">
        <ele>81.190234</ele>
        <time>2026-08-31T10:48:08.728Z</time>
      </trkpt>
      <trkpt lat="51.610111" lon="7.413204">
        <ele>80.187557</ele>
        <time>2026-08-31T10:48:31.151Z</time>
      </trkpt>
      <trkpt lat="51.610738" lon="7.413497">
        <ele>79.578573</ele>
        <time>2026-08-31T10:48:46.430Z</time>
      </trkpt>
      <trkpt lat="51.610869" lon="7.413690">
        <ele>79.424310</ele>
        <time>2026-08-31T10:48:50.822Z</time>
      </trkpt>
      <trkpt lat="51.611249" lon="7.413921">
        <ele>79.071417</ele>
        <time>2026-08-31T10:49:00.676Z</time>
      </trkpt>
      <trkpt lat="51.611522" lon="7.413980">
        <ele>78.832102</ele>
        <time>2026-08-31T10:49:06.929Z</time>
      </trkpt>
      <trkpt lat="51.611822" lon="7.414172">
        <ele>78.551626</ele>
        <time>2026-08-31T10:49:13.834Z</time>
      </trkpt>
      <trkpt lat="51.611940" lon="7.414143">
        <ele>78.447918</ele>
        <time>2026-08-31T10:49:16.290Z</time>
      </trkpt>
      <trkpt lat="51.612061" lon="7.414107">
        <ele>78.341012</ele>
        <time>2026-08-31T10:49:18.768Z</time>
      </trkpt>
      <trkpt lat="51.612718" lon="7.414045">
        <ele>77.274874</ele>
        <time>2026-08-31T10:49:31.874Z</time>
      </trkpt>
      <trkpt lat="51.612880" lon="7.414052">
        <ele>76.963970</ele>
        <time>2026-08-31T10:49:35.211Z</time>
      </trkpt>
      <trkpt lat="51.613070" lon="7.414143">
        <ele>76.583682</ele>
        <time>2026-08-31T10:49:39.207Z</time>
      </trkpt>
      <trkpt lat="51.613275" lon="7.414110">
        <ele>76.188437</ele>
        <time>2026-08-31T10:49:43.348Z</time>
      </trkpt>
      <trkpt lat="51.613725" lon="7.414280">
        <ele>75.301691</ele>
        <time>2026-08-31T10:49:52.626Z</time>
      </trkpt>
      <trkpt lat="51.613898" lon="7.414454">
        <ele>74.910384</ele>
        <time>2026-08-31T10:49:56.700Z</time>
      </trkpt>
      <trkpt lat="51.614396" lon="7.415129">
        <ele>73.419390</ele>
        <time>2026-08-31T10:50:09.282Z</time>
      </trkpt>
      <trkpt lat="51.614479" lon="7.415214">
        <ele>73.187812</ele>
        <time>2026-08-31T10:50:11.083Z</time>
      </trkpt>
      <trkpt lat="51.614585" lon="7.415253">
        <ele>72.931819</ele>
        <time>2026-08-31T10:50:13.064Z</time>
      </trkpt>
      <trkpt lat="51.614746" lon="7.415259">
        <ele>72.552663</ele>
        <time>2026-08-31T10:50:16.040Z</time>
      </trkpt>
      <trkpt lat="51.615192" lon="7.415162">
        <ele>71.493080</ele>
        <time>2026-08-31T10:50:24.429Z</time>
      </trkpt>
      <trkpt lat="51.615652" lon="7.415062">
        <ele>70.489346</ele>
        <time>2026-08-31T10:50:33.709Z</time>
      </trkpt>
      <trkpt lat="51.615582" lon="7.415403">
        <ele>70.468197</ele>
        <time>2026-08-31T10:50:37.987Z</time>
      </trkpt>
      <trkpt lat="51.615354" lon="7.416226">
        <ele>70.415131</ele>
        <time>2026-08-31T10:50:49.602Z</time>
      </trkpt>
      <trkpt lat="51.615697" lon="7.417032">
        <ele>70.357595</ele>
        <time>2026-08-31T10:51:06.568Z</time>
      </trkpt>
      <trkpt lat="51.615755" lon="7.417290">
        <ele>70.341438</ele>
        <time>2026-08-31T10:51:11.381Z</time>
      </trkpt>
      <trkpt lat="51.615848" lon="7.417398">
        <ele>70.330565</ele>
        <time>2026-08-31T10:51:14.521Z</time>
      </trkpt>
      <trkpt lat="51.615997" lon="7.417692">
        <ele>70.365006</ele>
        <time>2026-08-31T10:51:20.807Z</time>
      </trkpt>
      <trkpt lat="51.616046" lon="7.417907">
        <ele>70.405075</ele>
        <time>2026-08-31T10:51:24.547Z</time>
      </trkpt>
      <trkpt lat="51.616181" lon="7.418199">
        <ele>70.468767</ele>
        <time>2026-08-31T10:51:30.625Z</time>
      </trkpt>
      <trkpt lat="51.616668" lon="7.419160">
        <ele>70.685785</ele>
        <time>2026-08-31T10:51:52.069Z</time>
      </trkpt>
      <trkpt lat="51.616733" lon="7.419432">
        <ele>70.736775</ele>
        <time>2026-08-31T10:51:56.721Z</time>
      </trkpt>
      <trkpt lat="51.616961" lon="7.419889">
        <ele>70.776887</ele>
        <time>2026-08-31T10:52:04.855Z</time>
      </trkpt>
      <trkpt lat="51.617224" lon="7.420656">
        <ele>69.975640</ele>
        <time>2026-08-31T10:52:16.542Z</time>
      </trkpt>
      <trkpt lat="51.617413" lon="7.420465">
        <ele>69.647022</ele>
        <time>2026-08-31T10:52:22.092Z</time>
      </trkpt>
      <trkpt lat="51.617579" lon="7.420840">
        <ele>69.225871</ele>
        <time>2026-08-31T10:52:29.091Z</time>
      </trkpt>
      <trkpt lat="51.617860" lon="7.421488">
        <ele>68.503089</ele>
        <time>2026-08-31T10:52:38.728Z</time>
      </trkpt>
      <trkpt lat="51.617959" lon="7.421382">
        <ele>68.328003</ele>
        <time>2026-08-31T10:52:42.320Z</time>
      </trkpt>
      <trkpt lat="51.618301" lon="7.422181">
        <ele>67.590116</ele>
        <time>2026-08-31T10:52:53.249Z</time>
      </trkpt>
      <trkpt lat="51.618370" lon="7.422354">
        <ele>67.440103</ele>
        <time>2026-08-31T10:52:55.757Z</time>
      </trkpt>
      <trkpt lat="51.618455" lon="7.422303">
        <ele>67.333520</ele>
        <time>2026-08-31T10:52:57.539Z</time>
      </trkpt>
      <trkpt lat="51.618791" lon="7.422045">
        <ele>66.896136</ele>
        <time>2026-08-31T10:53:04.760Z</time>
      </trkpt>
      <trkpt lat="51.618838" lon="7.422113">
        <ele>66.821899</ele>
        <time>2026-08-31T10:53:05.992Z</time>
      </trkpt>
      <trkpt lat="51.618900" lon="7.422125">
        <ele>66.748524</ele>
        <time>2026-08-31T10:53:07.217Z</time>
      </trkpt>
      <trkpt lat="51.619226" lon="7.423199">
        <ele>65.983089</ele>
        <time>2026-08-31T10:53:21.539Z</time>
      </trkpt>
      <trkpt lat="51.619433" lon="7.423866">
        <ele>65.743901</ele>
        <time>2026-08-31T10:53:31.091Z</time>
      </trkpt>
      <trkpt lat="51.619625" lon="7.424484">
        <ele>65.522238</ele>
        <time>2026-08-31T10:53:40.123Z</time>
      </trkpt>
      <trkpt lat="51.619714" lon="7.424573">
        <ele>65.468117</ele>
        <time>2026-08-31T10:53:42.335Z</time>
      </trkpt>
      <trkpt lat="51.619792" lon="7.424526">
        <ele>65.425093</ele>
        <time>2026-08-31T10:53:44.069Z</time>
      </trkpt>
      <trkpt lat="51.619858" lon="7.424334">
        <ele>65.354698</ele>
        <time>2026-08-31T10:53:46.890Z</time>
      </trkpt>
      <trkpt lat="51.620134" lon="7.423912">
        <ele>65.158093</ele>
        <time>2026-08-31T10:54:00.411Z</time>
      </trkpt>
      <trkpt lat="51.620194" lon="7.423772">
        <ele>65.084454</ele>
        <time>2026-08-31T10:54:04.148Z</time>
      </trkpt>
      <trkpt lat="51.620202" lon="7.423623">
        <ele>65.009643</ele>
        <time>2026-08-31T10:54:07.446Z</time>
      </trkpt>
      <trkpt lat="51.620072" lon="7.423079">
        <ele>64.718065</ele>
        <time>2026-08-31T10:54:20.250Z</time>
      </trkpt>
      <trkpt lat="51.619588" lon="7.421381">
        <ele>63.783456</ele>
        <time>2026-08-31T10:55:00.593Z</time>
      </trkpt>
      <trkpt lat="51.619610" lon="7.421362">
        <ele>63.763343</ele>
        <time>2026-08-31T10:55:01.402Z</time>
      </trkpt>
      <trkpt lat="51.619650" lon="7.421328">
        <ele>63.726904</ele>
        <time>2026-08-31T10:55:02.893Z</time>
      </trkpt>
      <trkpt lat="51.619437" lon="7.420716">
        <ele>62.536920</ele>
        <time>2026-08-31T10:55:10.608Z</time>
      </trkpt>
      <trkpt lat="51.619270" lon="7.420226">
        <ele>61.506721</ele>
        <time>2026-08-31T10:55:16.402Z</time>
      </trkpt>
      <trkpt lat="51.619409" lon="7.420114">
        <ele>61.045359</ele>
        <time>2026-08-31T10:55:19.262Z</time>
      </trkpt>
      <trkpt lat="51.620101" lon="7.420205">
        <ele>58.984384</ele>
        <time>2026-08-31T10:55:31.725Z</time>
      </trkpt>
      <trkpt lat="51.620859" lon="7.420315">
        <ele>57.555783</ele>
        <time>2026-08-31T10:55:45.283Z</time>
      </trkpt>
      <trkpt lat="51.621173" lon="7.420294">
        <ele>57.099953</ele>
        <time>2026-08-31T10:55:51.387Z</time>
      </trkpt>
      <trkpt lat="51.621199" lon="7.420326">
        <ele>57.052492</ele>
        <time>2026-08-31T10:55:52.074Z</time>
      </trkpt>
      <trkpt lat="51.622029" lon="7.420489">
        <ele>55.839715</ele>
        <time>2026-08-31T10:56:12.485Z</time>
      </trkpt>
      <trkpt lat="51.622836" lon="7.420577">
        <ele>56.605048</ele>
        <time>2026-08-31T10:56:37.515Z</time>
      </trkpt>
      <trkpt lat="51.622894" lon="7.420631">
        <ele>56.683255</ele>
        <time>2026-08-31T10:56:39.709Z</time>
      </trkpt>
      <trkpt lat="51.623300" lon="7.419297">
        <ele>57.760022</ele>
        <time>2026-08-31T10:57:05.789Z</time>
      </trkpt>
      <trkpt lat="51.623309" lon="7.419255">
        <ele>57.792225</ele>
        <time>2026-08-31T10:57:06.465Z</time>
      </trkpt>
      <trkpt lat="51.623542" lon="7.418843">
        <ele>57.711494</ele>
        <time>2026-08-31T10:57:14.473Z</time>
      </trkpt>
      <trkpt lat="51.623619" lon="7.418775">
        <ele>57.674370</ele>
        <time>2026-08-31T10:57:16.386Z</time>
      </trkpt>
      <trkpt lat="51.623797" lon="7.418732">
        <ele>57.598278</ele>
        <time>2026-08-31T10:57:20.252Z</time>
      </trkpt>
      <trkpt lat="51.624039" lon="7.418938">
        <ele>57.482564</ele>
        <time>2026-08-31T10:57:25.911Z</time>
      </trkpt>
      <trkpt lat="51.624203" lon="7.419158">
        <ele>57.392338</ele>
        <time>2026-08-31T10:57:30.219Z</time>
      </trkpt>
      <trkpt lat="51.624837" lon="7.420238">
        <ele>56.963962</ele>
        <time>2026-08-31T10:57:47.608Z</time>
      </trkpt>
      <trkpt lat="51.625556" lon="7.421501">
        <ele>56.292756</ele>
        <time>2026-08-31T10:58:08.679Z</time>
      </trkpt>
      <trkpt lat="51.626089" lon="7.422441">
        <ele>56.008739</ele>
        <time>2026-08-31T10:58:25.724Z</time>
      </trkpt>
      <trkpt lat="51.626395" lon="7.422890">
        <ele>56.118736</ele>
        <time>2026-08-31T10:58:35.411Z</time>
      </trkpt>
      <trkpt lat="51.626988" lon="7.423510">
        <ele>56.306607</ele>
        <time>2026-08-31T10:58:52.950Z</time>
      </trkpt>
      <trkpt lat="51.627449" lon="7.423808">
        <ele>56.383414</ele>
        <time>2026-08-31T10:59:04.824Z</time>
      </trkpt>
      <trkpt lat="51.627561" lon="7.423875">
        <ele>56.302090</ele>
        <time>2026-08-31T10:59:07.554Z</time>
      </trkpt>
      <trkpt lat="51.627671" lon="7.423939">
        <ele>56.222480</ele>
        <time>2026-08-31T10:59:10.162Z</time>
      </trkpt>
      <trkpt lat="51.627935" lon="7.424111">
        <ele>56.028637</ele>
        <time>2026-08-31T10:59:16.104Z</time>
      </trkpt>
      <trkpt lat="51.628583" lon="7.424701">
        <ele>55.521973</ele>
        <time>2026-08-31T10:59:30.428Z</time>
      </trkpt>
      <trkpt lat="51.628666" lon="7.424780">
        <ele>55.456351</ele>
        <time>2026-08-31T10:59:32.264Z</time>
      </trkpt>
      <trkpt lat="51.629189" lon="7.425282">
        <ele>54.898598</ele>
        <time>2026-08-31T10:59:44.025Z</time>
      </trkpt>
      <trkpt lat="51.629264" lon="7.425351">
        <ele>54.786076</ele>
        <time>2026-08-31T10:59:45.695Z</time>
      </trkpt>
      <trkpt lat="51.629368" lon="7.425458">
        <ele>54.625309</ele>
        <time>2026-08-31T10:59:47.983Z</time>
      </trkpt>
      <trkpt lat="51.629708" lon="7.425723">
        <ele>54.133233</ele>
        <time>2026-08-31T10:59:54.838Z</time>
      </trkpt>
      <trkpt lat="51.630095" lon="7.425895">
        <ele>53.610210</ele>
        <time>2026-08-31T11:00:02.349Z</time>
      </trkpt>
      <trkpt lat="51.630488" lon="7.425952">
        <ele>53.096134</ele>
        <time>2026-08-31T11:00:09.800Z</time>
      </trkpt>
      <trkpt lat="51.630735" lon="7.425933">
        <ele>52.793387</ele>
        <time>2026-08-31T11:00:14.282Z</time>
      </trkpt>
      <trkpt lat="51.631735" lon="7.425684">
        <ele>51.789025</ele>
        <time>2026-08-31T11:00:32.906Z</time>
      </trkpt>
      <trkpt lat="51.632059" lon="7.425666">
        <ele>51.467239</ele>
        <time>2026-08-31T11:00:39.578Z</time>
      </trkpt>
      <trkpt lat="51.632540" lon="7.425734">
        <ele>51.046938</ele>
        <time>2026-08-31T11:00:49.913Z</time>
      </trkpt>
      <trkpt lat="51.633398" lon="7.426033">
        <ele>50.800356</ele>
        <time>2026-08-31T11:01:09.062Z</time>
      </trkpt>
      <trkpt lat="51.633972" lon="7.426183">
        <ele>50.637015</ele>
        <time>2026-08-31T11:01:21.274Z</time>
      </trkpt>
      <trkpt lat="51.634261" lon="7.426211">
        <ele>50.550083</ele>
        <time>2026-08-31T11:01:27.233Z</time>
      </trkpt>
      <trkpt lat="51.634976" lon="7.426195">
        <ele>50.228007</ele>
        <time>2026-08-31T11:01:41.741Z</time>
      </trkpt>
      <trkpt lat="51.635103" lon="7.426197">
        <ele>50.170802</ele>
        <time>2026-08-31T11:01:44.310Z</time>
      </trkpt>
      <trkpt lat="51.635735" lon="7.426299">
        <ele>49.884716</ele>
        <time>2026-08-31T11:01:57.410Z</time>
      </trkpt>
      <trkpt lat="51.636050" lon="7.426412">
        <ele>49.753311</ele>
        <time>2026-08-31T11:02:04.259Z</time>
      </trkpt>
      <trkpt lat="51.636427" lon="7.426602">
        <ele>49.735654</ele>
        <time>2026-08-31T11:02:12.818Z</time>
      </trkpt>
      <trkpt lat="51.636610" lon="7.426717">
        <ele>49.726874</ele>
        <time>2026-08-31T11:02:17.145Z</time>
      </trkpt>
      <trkpt lat="51.637043" lon="7.427069">
        <ele>49.705195</ele>
        <time>2026-08-31T11:02:27.939Z</time>
      </trkpt>
      <trkpt lat="51.637456" lon="7.427512">
        <ele>49.683018</ele>
        <time>2026-08-31T11:02:39.226Z</time>
      </trkpt>
      <trkpt lat="51.637858" lon="7.428063">
        <ele>49.679498</ele>
        <time>2026-08-31T11:02:51.182Z</time>
      </trkpt>
      <trkpt lat="51.637961" lon="7.428211">
        <ele>49.681571</ele>
        <time>2026-08-31T11:02:54.285Z</time>
      </trkpt>
      <trkpt lat="51.638807" lon="7.429419">
        <ele>49.698551</ele>
        <time>2026-08-31T11:03:19.214Z</time>
      </trkpt>
      <trkpt lat="51.639103" lon="7.429904">
        <ele>49.765034</ele>
        <time>2026-08-31T11:03:28.532Z</time>
      </trkpt>
      <trkpt lat="51.639438" lon="7.430607">
        <ele>49.918394</ele>
        <time>2026-08-31T11:03:40.843Z</time>
      </trkpt>
      <trkpt lat="51.639871" lon="7.431759">
        <ele>50.151426</ele>
        <time>2026-08-31T11:04:00.561Z</time>
      </trkpt>
      <trkpt lat="51.640160" lon="7.432577">
        <ele>50.539007</ele>
        <time>2026-08-31T11:04:15.205Z</time>
      </trkpt>
      <trkpt lat="51.640395" lon="7.433511">
        <ele>51.065288</ele>
        <time>2026-08-31T11:04:31.805Z</time>
      </trkpt>
      <trkpt lat="51.640629" lon="7.434597">
        <ele>51.665587</ele>
        <time>2026-08-31T11:04:50.417Z</time>
      </trkpt>
      <trkpt lat="51.640729" lon="7.435065">
        <ele>51.716608</ele>
        <time>2026-08-31T11:04:58.053Z</time>
      </trkpt>
      <trkpt lat="51.640861" lon="7.435678">
        <ele>51.717021</ele>
        <time>2026-08-31T11:05:07.675Z</time>
      </trkpt>
      <trkpt lat="51.641943" lon="7.440720">
        <ele>50.843522</ele>
        <time>2026-08-31T11:06:17.256Z</time>
      </trkpt>
      <trkpt lat="51.642202" lon="7.441796">
        <ele>50.354544</ele>
        <time>2026-08-31T11:06:31.728Z</time>
      </trkpt>
      <trkpt lat="51.642876" lon="7.443683">
        <ele>49.240592</ele>
        <time>2026-08-31T11:06:58.159Z</time>
      </trkpt>
      <trkpt lat="51.642906" lon="7.443765">
        <ele>49.182355</ele>
        <time>2026-08-31T11:06:59.290Z</time>
      </trkpt>
      <trkpt lat="51.643217" lon="7.444630">
        <ele>48.570741</ele>
        <time>2026-08-31T11:07:11.119Z</time>
      </trkpt>
      <trkpt lat="51.644218" lon="7.447409">
        <ele>46.732364</ele>
        <time>2026-08-31T11:07:49.285Z</time>
      </trkpt>
      <trkpt lat="51.644118" lon="7.447473">
        <ele>46.635388</ele>
        <time>2026-08-31T11:07:52.276Z</time>
      </trkpt>
      <trkpt lat="51.643735" lon="7.447600">
        <ele>46.458228</ele>
        <time>2026-08-31T11:08:03.241Z</time>
      </trkpt>
      <trkpt lat="51.643304" lon="7.447634">
        <ele>46.435688</ele>
        <time>2026-08-31T11:08:15.710Z</time>
      </trkpt>
      <trkpt lat="51.643171" lon="7.447841">
        <ele>46.426030</ele>
        <time>2026-08-31T11:08:21.150Z</time>
      </trkpt>
      <trkpt lat="51.642665" lon="7.449586">
        <ele>46.416516</ele>
        <time>2026-08-31T11:08:56.850Z</time>
      </trkpt>
      <trkpt lat="51.642461" lon="7.450158">
        <ele>46.493851</ele>
        <time>2026-08-31T11:09:09.177Z</time>
      </trkpt>
      <trkpt lat="51.642255" lon="7.450501">
        <ele>46.549805</ele>
        <time>2026-08-31T11:09:18.179Z</time>
      </trkpt>
      <trkpt lat="51.641891" lon="7.450993">
        <ele>46.639549</ele>
        <time>2026-08-31T11:09:32.332Z</time>
      </trkpt>
      <trkpt lat="51.641727" lon="7.451038">
        <ele>46.670974</ele>
        <time>2026-08-31T11:09:37.178Z</time>
      </trkpt>
      <trkpt lat="51.641563" lon="7.450993">
        <ele>46.702398</ele>
        <time>2026-08-31T11:09:42.088Z</time>
      </trkpt>
      <trkpt lat="51.641427" lon="7.451090">
        <ele>46.713451</ele>
        <time>2026-08-31T11:09:46.526Z</time>
      </trkpt>
      <trkpt lat="51.641220" lon="7.451339">
        <ele>46.709204</ele>
        <time>2026-08-31T11:09:54.311Z</time>
      </trkpt>
      <trkpt lat="51.641186" lon="7.451407">
        <ele>46.708313</ele>
        <time>2026-08-31T11:09:55.945Z</time>
      </trkpt>
      <trkpt lat="51.641176" lon="7.451592">
        <ele>46.706418</ele>
        <time>2026-08-31T11:09:59.393Z</time>
      </trkpt>
      <trkpt lat="51.641284" lon="7.451937">
        <ele>46.702475</ele>
        <time>2026-08-31T11:10:06.477Z</time>
      </trkpt>
      <trkpt lat="51.641294" lon="7.452000">
        <ele>46.701811</ele>
        <time>2026-08-31T11:10:07.651Z</time>
      </trkpt>
      <trkpt lat="51.641284" lon="7.451937">
        <ele>46.701148</ele>
        <time>2026-08-31T11:10:08.834Z</time>
      </trkpt>
      <trkpt lat="51.641176" lon="7.451592">
        <ele>46.697205</ele>
        <time>2026-08-31T11:10:15.778Z</time>
      </trkpt>
      <trkpt lat="51.641186" lon="7.451407">
        <ele>46.695310</ele>
        <time>2026-08-31T11:10:19.082Z</time>
      </trkpt>
      <trkpt lat="51.641220" lon="7.451339">
        <ele>46.694419</ele>
        <time>2026-08-31T11:10:20.614Z</time>
      </trkpt>
      <trkpt lat="51.641427" lon="7.451090">
        <ele>46.690171</ele>
        <time>2026-08-31T11:10:27.988Z</time>
      </trkpt>
      <trkpt lat="51.641563" lon="7.450993">
        <ele>46.687726</ele>
        <time>2026-08-31T11:10:32.253Z</time>
      </trkpt>
      <trkpt lat="51.641727" lon="7.451038">
        <ele>46.682252</ele>
        <time>2026-08-31T11:10:37.078Z</time>
      </trkpt>
      <trkpt lat="51.641891" lon="7.450993">
        <ele>46.649632</ele>
        <time>2026-08-31T11:10:41.949Z</time>
      </trkpt>
      <trkpt lat="51.642255" lon="7.450501">
        <ele>46.556477</ele>
        <time>2026-08-31T11:10:55.631Z</time>
      </trkpt>
      <trkpt lat="51.642461" lon="7.450158">
        <ele>46.498396</ele>
        <time>2026-08-31T11:11:03.970Z</time>
      </trkpt>
      <trkpt lat="51.642665" lon="7.449586">
        <ele>46.418120</ele>
        <time>2026-08-31T11:11:15.605Z</time>
      </trkpt>
      <trkpt lat="51.643171" lon="7.447841">
        <ele>46.443625</ele>
        <time>2026-08-31T11:11:49.911Z</time>
      </trkpt>
      <trkpt lat="51.643304" lon="7.447634">
        <ele>46.470682</ele>
        <time>2026-08-31T11:11:55.263Z</time>
      </trkpt>
      <trkpt lat="51.643735" lon="7.447600">
        <ele>46.533826</ele>
        <time>2026-08-31T11:12:08.094Z</time>
      </trkpt>
      <trkpt lat="51.644118" lon="7.447473">
        <ele>46.591045</ele>
        <time>2026-08-31T11:12:20.015Z</time>
      </trkpt>
      <trkpt lat="51.644218" lon="7.447409">
        <ele>46.668127</ele>
        <time>2026-08-31T11:12:23.371Z</time>
      </trkpt>
      <trkpt lat="51.643217" lon="7.444630">
        <ele>48.582428</ele>
        <time>2026-08-31T11:13:16.264Z</time>
      </trkpt>
      <trkpt lat="51.642906" lon="7.443765">
        <ele>49.176628</ele>
        <time>2026-08-31T11:13:32.831Z</time>
      </trkpt>
      <trkpt lat="51.642876" lon="7.443683">
        <ele>49.233207</ele>
        <time>2026-08-31T11:13:34.375Z</time>
      </trkpt>
      <trkpt lat="51.642202" lon="7.441796">
        <ele>50.363467</ele>
        <time>2026-08-31T11:14:09.201Z</time>
      </trkpt>
      <trkpt lat="51.641943" lon="7.440720">
        <ele>50.815945</ele>
        <time>2026-08-31T11:14:26.932Z</time>
      </trkpt>
      <trkpt lat="51.640861" lon="7.435678">
        <ele>51.676027</ele>
        <time>2026-08-31T11:15:45.088Z</time>
      </trkpt>
      <trkpt lat="51.640729" lon="7.435065">
        <ele>51.626692</ele>
        <time>2026-08-31T11:15:53.464Z</time>
      </trkpt>
      <trkpt lat="51.640629" lon="7.434597">
        <ele>51.589058</ele>
        <time>2026-08-31T11:15:59.647Z</time>
      </trkpt>
      <trkpt lat="51.640395" lon="7.433511">
        <ele>51.104600</ele>
        <time>2026-08-31T11:16:13.481Z</time>
      </trkpt>
      <trkpt lat="51.640160" lon="7.432577">
        <ele>50.582047</ele>
        <time>2026-08-31T11:16:25.446Z</time>
      </trkpt>
      <trkpt lat="51.639871" lon="7.431759">
        <ele>50.094011</ele>
        <time>2026-08-31T11:16:37.114Z</time>
      </trkpt>
      <trkpt lat="51.639438" lon="7.430607">
        <ele>49.903106</ele>
        <time>2026-08-31T11:16:54.695Z</time>
      </trkpt>
      <trkpt lat="51.639103" lon="7.429904">
        <ele>49.790814</ele>
        <time>2026-08-31T11:17:06.856Z</time>
      </trkpt>
      <trkpt lat="51.638807" lon="7.429419">
        <ele>49.704634</ele>
        <time>2026-08-31T11:17:16.330Z</time>
      </trkpt>
      <trkpt lat="51.637961" lon="7.428211">
        <ele>49.700000</ele>
        <time>2026-08-31T11:17:41.660Z</time>
      </trkpt>
      <trkpt lat="51.637858" lon="7.428063">
        <ele>49.700000</ele>
        <time>2026-08-31T11:17:44.716Z</time>
      </trkpt>
      <trkpt lat="51.637456" lon="7.427512">
        <ele>49.700000</ele>
        <time>2026-08-31T11:17:56.227Z</time>
      </trkpt>
      <trkpt lat="51.637043" lon="7.427069">
        <ele>49.708570</ele>
        <time>2026-08-31T11:18:07.245Z</time>
      </trkpt>
      <trkpt lat="51.636610" lon="7.426717">
        <ele>49.717395</ele>
        <time>2026-08-31T11:18:18.111Z</time>
      </trkpt>
      <trkpt lat="51.636427" lon="7.426602">
        <ele>49.720969</ele>
        <time>2026-08-31T11:18:22.517Z</time>
      </trkpt>
      <trkpt lat="51.636452" lon="7.426446">
        <ele>49.722789</ele>
        <time>2026-08-31T11:18:24.780Z</time>
      </trkpt>
      <trkpt lat="51.636497" lon="7.426156">
        <ele>49.726165</ele>
        <time>2026-08-31T11:18:28.957Z</time>
      </trkpt>
      <trkpt lat="51.636490" lon="7.425942">
        <ele>49.728585</ele>
        <time>2026-08-31T11:18:31.953Z</time>
      </trkpt>
      <trkpt lat="51.636417" lon="7.425601">
        <ele>49.732659</ele>
        <time>2026-08-31T11:18:37.012Z</time>
      </trkpt>
      <trkpt lat="51.636368" lon="7.425416">
        <ele>49.723978</ele>
        <time>2026-08-31T11:18:39.837Z</time>
      </trkpt>
      <trkpt lat="51.635685" lon="7.423409">
        <ele>49.621239</ele>
        <time>2026-08-31T11:19:10.685Z</time>
      </trkpt>
      <trkpt lat="51.635514" lon="7.422914">
        <ele>49.616273</ele>
        <time>2026-08-31T11:19:18.189Z</time>
      </trkpt>
      <trkpt lat="51.635100" lon="7.421667">
        <ele>49.742702</ele>
        <time>2026-08-31T11:19:38.404Z</time>
      </trkpt>
      <trkpt lat="51.634889" lon="7.420966">
        <ele>49.812352</ele>
        <time>2026-08-31T11:19:49.362Z</time>
      </trkpt>
      <trkpt lat="51.634833" lon="7.420808">
        <ele>49.828619</ele>
        <time>2026-08-31T11:19:51.926Z</time>
      </trkpt>
      <trkpt lat="51.634689" lon="7.420408">
        <ele>49.902199</ele>
        <time>2026-08-31T11:19:58.668Z</time>
      </trkpt>
      <trkpt lat="51.634322" lon="7.419379">
        <ele>50.423762</ele>
        <time>2026-08-31T11:20:16.606Z</time>
      </trkpt>
      <trkpt lat="51.634152" lon="7.418925">
        <ele>50.656781</ele>
        <time>2026-08-31T11:20:24.520Z</time>
      </trkpt>
      <trkpt lat="51.633417" lon="7.417024">
        <ele>51.892649</ele>
        <time>2026-08-31T11:21:01.790Z</time>
      </trkpt>
      <trkpt lat="51.632789" lon="7.415260">
        <ele>53.176068</ele>
        <time>2026-08-31T11:21:35.082Z</time>
      </trkpt>
      <trkpt lat="51.632666" lon="7.414968">
        <ele>53.340795</ele>
        <time>2026-08-31T11:21:41.062Z</time>
      </trkpt>
      <trkpt lat="51.632534" lon="7.414760">
        <ele>53.479652</ele>
        <time>2026-08-31T11:21:46.004Z</time>
      </trkpt>
      <trkpt lat="51.632361" lon="7.414602">
        <ele>53.629206</ele>
        <time>2026-08-31T11:21:51.149Z</time>
      </trkpt>
      <trkpt lat="51.631814" lon="7.414179">
        <ele>54.085506</ele>
        <time>2026-08-31T11:22:06.198Z</time>
      </trkpt>
      <trkpt lat="51.631732" lon="7.414109">
        <ele>54.155295</ele>
        <time>2026-08-31T11:22:08.436Z</time>
      </trkpt>
      <trkpt lat="51.631788" lon="7.413922">
        <ele>54.252215</ele>
        <time>2026-08-31T11:22:24.361Z</time>
      </trkpt>
      <trkpt lat="51.631901" lon="7.413950">
        <ele>54.338195</ele>
        <time>2026-08-31T11:22:28.755Z</time>
      </trkpt>
      <trkpt lat="51.632312" lon="7.411541">
        <ele>54.831828</ele>
        <time>2026-08-31T11:23:07.809Z</time>
      </trkpt>
      <trkpt lat="51.632637" lon="7.409808">
        <ele>55.647634</ele>
        <time>2026-08-31T11:23:39.139Z</time>
      </trkpt>
      <trkpt lat="51.633060" lon="7.407792">
        <ele>56.819256</ele>
        <time>2026-08-31T11:24:17.170Z</time>
      </trkpt>
      <trkpt lat="51.633537" lon="7.405299">
        <ele>58.056025</ele>
        <time>2026-08-31T11:25:03.204Z</time>
      </trkpt>
      <trkpt lat="51.634673" lon="7.399894">
        <ele>57.286022</ele>
        <time>2026-08-31T11:26:26.683Z</time>
      </trkpt>
      <trkpt lat="51.635117" lon="7.398135">
        <ele>56.803238</ele>
        <time>2026-08-31T11:26:54.419Z</time>
      </trkpt>
      <trkpt lat="51.635291" lon="7.397569">
        <ele>56.642653</ele>
        <time>2026-08-31T11:27:03.486Z</time>
      </trkpt>
      <trkpt lat="51.635587" lon="7.396365">
        <ele>56.233682</ele>
        <time>2026-08-31T11:27:21.620Z</time>
      </trkpt>
      <trkpt lat="51.635497" lon="7.396280">
        <ele>56.178415</ele>
        <time>2026-08-31T11:27:23.989Z</time>
      </trkpt>
      <trkpt lat="51.635597" lon="7.396036">
        <ele>56.082273</ele>
        <time>2026-08-31T11:27:27.612Z</time>
      </trkpt>
      <trkpt lat="51.635803" lon="7.395278">
        <ele>55.810191</ele>
        <time>2026-08-31T11:27:38.104Z</time>
      </trkpt>
      <trkpt lat="51.636478" lon="7.392627">
        <ele>55.197825</ele>
        <time>2026-08-31T11:28:15.630Z</time>
      </trkpt>
      <trkpt lat="51.636825" lon="7.391034">
        <ele>54.895534</ele>
        <time>2026-08-31T11:28:37.828Z</time>
      </trkpt>
      <trkpt lat="51.636746" lon="7.391029">
        <ele>54.873241</ele>
        <time>2026-08-31T11:28:40.087Z</time>
      </trkpt>
      <trkpt lat="51.636343" lon="7.391007">
        <ele>54.759542</ele>
        <time>2026-08-31T11:28:51.541Z</time>
      </trkpt>
      <trkpt lat="51.636078" lon="7.391076">
        <ele>54.683851</ele>
        <time>2026-08-31T11:28:59.226Z</time>
      </trkpt>
      <trkpt lat="51.635992" lon="7.391428">
        <ele>54.617647</ele>
        <time>2026-08-31T11:29:05.961Z</time>
      </trkpt>
      <trkpt lat="51.636078" lon="7.391076">
        <ele>54.552433</ele>
        <time>2026-08-31T11:29:12.579Z</time>
      </trkpt>
      <trkpt lat="51.636343" lon="7.391007">
        <ele>54.479078</ele>
        <time>2026-08-31T11:29:20.069Z</time>
      </trkpt>
      <trkpt lat="51.636746" lon="7.391029">
        <ele>54.368889</ele>
        <time>2026-08-31T11:29:31.249Z</time>
      </trkpt>
      <trkpt lat="51.636825" lon="7.391034">
        <ele>54.347284</ele>
        <time>2026-08-31T11:29:33.411Z</time>
      </trkpt>
      <trkpt lat="51.636881" lon="7.390776">
        <ele>54.300929</ele>
        <time>2026-08-31T11:29:36.876Z</time>
      </trkpt>
      <trkpt lat="51.637045" lon="7.390235">
        <ele>54.198815</ele>
        <time>2026-08-31T11:29:44.595Z</time>
      </trkpt>
      <trkpt lat="51.637567" lon="7.388724">
        <ele>54.432441</ele>
        <time>2026-08-31T11:30:08.705Z</time>
      </trkpt>
      <trkpt lat="51.637757" lon="7.388046">
        <ele>54.662843</ele>
        <time>2026-08-31T11:30:20.617Z</time>
      </trkpt>
      <trkpt lat="51.638118" lon="7.386940">
        <ele>54.981670</ele>
        <time>2026-08-31T11:30:40.820Z</time>
      </trkpt>
      <trkpt lat="51.637937" lon="7.386025">
        <ele>54.942823</ele>
        <time>2026-08-31T11:30:54.599Z</time>
      </trkpt>
      <trkpt lat="51.637416" lon="7.386335">
        <ele>54.906624</ele>
        <time>2026-08-31T11:31:06.892Z</time>
      </trkpt>
      <trkpt lat="51.637286" lon="7.386523">
        <ele>54.895238</ele>
        <time>2026-08-31T11:31:10.598Z</time>
      </trkpt>
      <trkpt lat="51.636729" lon="7.387516">
        <ele>54.996688</ele>
        <time>2026-08-31T11:31:27.985Z</time>
      </trkpt>
      <trkpt lat="51.636570" lon="7.387662">
        <ele>55.044202</ele>
        <time>2026-08-31T11:31:32.138Z</time>
      </trkpt>
      <trkpt lat="51.634646" lon="7.388712">
        <ele>57.010841</ele>
        <time>2026-08-31T11:32:25.334Z</time>
      </trkpt>
      <trkpt lat="51.633714" lon="7.389258">
        <ele>59.014348</ele>
        <time>2026-08-31T11:32:59.376Z</time>
      </trkpt>
      <trkpt lat="51.633381" lon="7.389561">
        <ele>60.385801</ele>
        <time>2026-08-31T11:33:13.729Z</time>
      </trkpt>
      <trkpt lat="51.633116" lon="7.389903">
        <ele>61.603413</ele>
        <time>2026-08-31T11:33:26.536Z</time>
      </trkpt>
      <trkpt lat="51.632861" lon="7.390206">
        <ele>62.739673</ele>
        <time>2026-08-31T11:33:38.542Z</time>
      </trkpt>
      <trkpt lat="51.632715" lon="7.390337">
        <ele>63.338962</ele>
        <time>2026-08-31T11:33:44.981Z</time>
      </trkpt>
      <trkpt lat="51.632365" lon="7.390440">
        <ele>64.614858</ele>
        <time>2026-08-31T11:33:58.980Z</time>
      </trkpt>
      <trkpt lat="51.632211" lon="7.390485">
        <ele>65.173966</ele>
        <time>2026-08-31T11:34:04.951Z</time>
      </trkpt>
      <trkpt lat="51.632179" lon="7.390495">
        <ele>65.281401</ele>
        <time>2026-08-31T11:34:06.116Z</time>
      </trkpt>
      <trkpt lat="51.631735" lon="7.390626">
        <ele>66.769121</ele>
        <time>2026-08-31T11:34:23.122Z</time>
      </trkpt>
      <trkpt lat="51.631328" lon="7.390746">
        <ele>68.132833</ele>
        <time>2026-08-31T11:34:38.692Z</time>
      </trkpt>
      <trkpt lat="51.631107" lon="7.390813">
        <ele>68.874013</ele>
        <time>2026-08-31T11:34:46.823Z</time>
      </trkpt>
      <trkpt lat="51.630326" lon="7.391046">
        <ele>71.217044</ele>
        <time>2026-08-31T11:35:15.158Z</time>
      </trkpt>
      <trkpt lat="51.630205" lon="7.391081">
        <ele>71.353416</ele>
        <time>2026-08-31T11:35:19.154Z</time>
      </trkpt>
      <trkpt lat="51.629487" lon="7.391284">
        <ele>72.162071</ele>
        <time>2026-08-31T11:35:40.525Z</time>
      </trkpt>
      <trkpt lat="51.629144" lon="7.391384">
        <ele>72.548743</ele>
        <time>2026-08-31T11:35:49.417Z</time>
      </trkpt>
      <trkpt lat="51.628823" lon="7.391493">
        <ele>72.912655</ele>
        <time>2026-08-31T11:35:57.206Z</time>
      </trkpt>
      <trkpt lat="51.628290" lon="7.391876">
        <ele>72.485745</ele>
        <time>2026-08-31T11:36:09.670Z</time>
      </trkpt>
      <trkpt lat="51.628113" lon="7.392017">
        <ele>72.221788</ele>
        <time>2026-08-31T11:36:13.611Z</time>
      </trkpt>
      <trkpt lat="51.627463" lon="7.392355">
        <ele>71.308740</ele>
        <time>2026-08-31T11:36:26.639Z</time>
      </trkpt>
      <trkpt lat="51.627099" lon="7.392562">
        <ele>70.792726</ele>
        <time>2026-08-31T11:36:33.718Z</time>
      </trkpt>
      <trkpt lat="51.627047" lon="7.392596">
        <ele>70.717706</ele>
        <time>2026-08-31T11:36:34.689Z</time>
      </trkpt>
      <trkpt lat="51.626328" lon="7.393062">
        <ele>69.749076</ele>
        <time>2026-08-31T11:36:48.175Z</time>
      </trkpt>
      <trkpt lat="51.626063" lon="7.393350">
        <ele>69.350929</ele>
        <time>2026-08-31T11:36:54.016Z</time>
      </trkpt>
      <trkpt lat="51.625714" lon="7.393729">
        <ele>68.826703</ele>
        <time>2026-08-31T11:37:02.319Z</time>
      </trkpt>
      <trkpt lat="51.625498" lon="7.393889">
        <ele>68.530596</ele>
        <time>2026-08-31T11:37:07.554Z</time>
      </trkpt>
      <trkpt lat="51.624199" lon="7.394886">
        <ele>68.101117</ele>
        <time>2026-08-31T11:37:40.848Z</time>
      </trkpt>
      <trkpt lat="51.624417" lon="7.395532">
        <ele>67.987225</ele>
        <time>2026-08-31T11:37:50.038Z</time>
      </trkpt>
      <trkpt lat="51.624531" lon="7.395907">
        <ele>67.857034</ele>
        <time>2026-08-31T11:37:55.010Z</time>
      </trkpt>
      <trkpt lat="51.624382" lon="7.396122">
        <ele>67.756563</ele>
        <time>2026-08-31T11:38:08.875Z</time>
      </trkpt>
      <trkpt lat="51.623717" lon="7.396653">
        <ele>67.383783</ele>
        <time>2026-08-31T11:39:00.456Z</time>
      </trkpt>
      <trkpt lat="51.623790" lon="7.396877">
        <ele>67.304899</ele>
        <time>2026-08-31T11:39:11.361Z</time>
      </trkpt>
      <trkpt lat="51.623717" lon="7.396653">
        <ele>67.226016</ele>
        <time>2026-08-31T11:39:22.266Z</time>
      </trkpt>
      <trkpt lat="51.624382" lon="7.396122">
        <ele>68.145157</ele>
        <time>2026-08-31T11:40:13.848Z</time>
      </trkpt>
      <trkpt lat="51.624531" lon="7.395907">
        <ele>68.590145</ele>
        <time>2026-08-31T11:40:27.715Z</time>
      </trkpt>
      <trkpt lat="51.624417" lon="7.395532">
        <ele>69.166770</ele>
        <time>2026-08-31T11:40:36.484Z</time>
      </trkpt>
      <trkpt lat="51.624199" lon="7.394886">
        <ele>70.182171</ele>
        <time>2026-08-31T11:40:52.080Z</time>
      </trkpt>
      <trkpt lat="51.624129" lon="7.394708">
        <ele>70.473157</ele>
        <time>2026-08-31T11:40:56.703Z</time>
      </trkpt>
      <trkpt lat="51.623942" lon="7.394265">
        <ele>71.212654</ele>
        <time>2026-08-31T11:41:08.391Z</time>
      </trkpt>
      <trkpt lat="51.623722" lon="7.393681">
        <ele>72.153602</ele>
        <time>2026-08-31T11:41:22.880Z</time>
      </trkpt>
      <trkpt lat="51.623618" lon="7.393342">
        <ele>72.674464</ele>
        <time>2026-08-31T11:41:30.810Z</time>
      </trkpt>
      <trkpt lat="51.623347" lon="7.392347">
        <ele>74.171137</ele>
        <time>2026-08-31T11:41:51.506Z</time>
      </trkpt>
      <trkpt lat="51.623119" lon="7.391656">
        <ele>75.160996</ele>
        <time>2026-08-31T11:42:05.569Z</time>
      </trkpt>
      <trkpt lat="51.623094" lon="7.391583">
        <ele>75.214936</ele>
        <time>2026-08-31T11:42:07.012Z</time>
      </trkpt>
      <trkpt lat="51.622966" lon="7.391191">
        <ele>75.501499</ele>
        <time>2026-08-31T11:42:14.549Z</time>
      </trkpt>
      <trkpt lat="51.622914" lon="7.391026">
        <ele>75.621220</ele>
        <time>2026-08-31T11:42:17.661Z</time>
      </trkpt>
      <trkpt lat="51.622864" lon="7.390862">
        <ele>75.739432</ele>
        <time>2026-08-31T11:42:20.687Z</time>
      </trkpt>
      <trkpt lat="51.622617" lon="7.390026">
        <ele>76.338450</ele>
        <time>2026-08-31T11:42:35.441Z</time>
      </trkpt>
      <trkpt lat="51.622610" lon="7.389997">
        <ele>76.358581</ele>
        <time>2026-08-31T11:42:35.920Z</time>
      </trkpt>
      <trkpt lat="51.622345" lon="7.388897">
        <ele>77.011915</ele>
        <time>2026-08-31T11:42:54.721Z</time>
      </trkpt>
      <trkpt lat="51.622208" lon="7.388127">
        <ele>77.183476</ele>
        <time>2026-08-31T11:43:07.053Z</time>
      </trkpt>
      <trkpt lat="51.622167" lon="7.387864">
        <ele>77.241555</ele>
        <time>2026-08-31T11:43:11.114Z</time>
      </trkpt>
      <trkpt lat="51.622130" lon="7.387581">
        <ele>77.303499</ele>
        <time>2026-08-31T11:43:15.372Z</time>
      </trkpt>
      <trkpt lat="51.622001" lon="7.386600">
        <ele>77.518276</ele>
        <time>2026-08-31T11:43:29.605Z</time>
      </trkpt>
      <trkpt lat="51.621874" lon="7.385443">
        <ele>77.335935</ele>
        <time>2026-08-31T11:43:44.929Z</time>
      </trkpt>
      <trkpt lat="51.621765" lon="7.384326">
        <ele>77.030614</ele>
        <time>2026-08-31T11:43:59.208Z</time>
      </trkpt>
      <trkpt lat="51.621760" lon="7.384277">
        <ele>77.017205</ele>
        <time>2026-08-31T11:43:59.840Z</time>
      </trkpt>
      <trkpt lat="51.621726" lon="7.383921">
        <ele>76.919945</ele>
        <time>2026-08-31T11:44:04.406Z</time>
      </trkpt>
      <trkpt lat="51.621718" lon="7.383843">
        <ele>76.898597</ele>
        <time>2026-08-31T11:44:05.416Z</time>
      </trkpt>
      <trkpt lat="51.621643" lon="7.383024">
        <ele>76.699153</ele>
        <time>2026-08-31T11:44:16.015Z</time>
      </trkpt>
      <trkpt lat="51.621598" lon="7.382888">
        <ele>76.665854</ele>
        <time>2026-08-31T11:44:17.981Z</time>
      </trkpt>
      <trkpt lat="51.621627" lon="7.382799">
        <ele>76.644136</ele>
        <time>2026-08-31T11:44:19.265Z</time>
      </trkpt>
      <trkpt lat="51.621587" lon="7.382085">
        <ele>76.489231</ele>
        <time>2026-08-31T11:44:28.441Z</time>
      </trkpt>
      <trkpt lat="51.621646" lon="7.381176">
        <ele>76.291747</ele>
        <time>2026-08-31T11:44:40.413Z</time>
      </trkpt>
      <trkpt lat="51.621646" lon="7.380614">
        <ele>76.170313</ele>
        <time>2026-08-31T11:44:47.989Z</time>
      </trkpt>
      <trkpt lat="51.621577" lon="7.379831">
        <ele>76.163965</ele>
        <time>2026-08-31T11:44:58.723Z</time>
      </trkpt>
      <trkpt lat="51.621368" lon="7.378764">
        <ele>76.155832</ele>
        <time>2026-08-31T11:45:14.220Z</time>
      </trkpt>
      <trkpt lat="51.620956" lon="7.376971">
        <ele>76.131537</ele>
        <time>2026-08-31T11:45:40.904Z</time>
      </trkpt>
      <trkpt lat="51.620118" lon="7.373463">
        <ele>75.886399</ele>
        <time>2026-08-31T11:46:31.982Z</time>
      </trkpt>
      <trkpt lat="51.619634" lon="7.371256">
        <ele>75.262483</ele>
        <time>2026-08-31T11:47:02.541Z</time>
      </trkpt>
      <trkpt lat="51.619030" lon="7.368290">
        <ele>73.893137</ele>
        <time>2026-08-31T11:47:40.584Z</time>
      </trkpt>
      <trkpt lat="51.618441" lon="7.365566">
        <ele>72.814275</ele>
        <time>2026-08-31T11:48:16.435Z</time>
      </trkpt>
      <trkpt lat="51.618102" lon="7.363950">
        <ele>72.367547</ele>
        <time>2026-08-31T11:48:39.208Z</time>
      </trkpt>
      <trkpt lat="51.617959" lon="7.363232">
        <ele>72.193278</ele>
        <time>2026-08-31T11:48:49.495Z</time>
      </trkpt>
      <trkpt lat="51.617903" lon="7.362544">
        <ele>72.032911</ele>
        <time>2026-08-31T11:48:58.685Z</time>
      </trkpt>
      <trkpt lat="51.617869" lon="7.362370">
        <ele>71.990752</ele>
        <time>2026-08-31T11:49:01.062Z</time>
      </trkpt>
      <trkpt lat="51.617845" lon="7.362283">
        <ele>71.968750</ele>
        <time>2026-08-31T11:49:02.288Z</time>
      </trkpt>
      <trkpt lat="51.617714" lon="7.361962">
        <ele>71.879972</ele>
        <time>2026-08-31T11:49:07.185Z</time>
      </trkpt>
      <trkpt lat="51.617419" lon="7.360659">
        <ele>71.551559</ele>
        <time>2026-08-31T11:49:24.257Z</time>
      </trkpt>
      <trkpt lat="51.617332" lon="7.360250">
        <ele>71.447623</ele>
        <time>2026-08-31T11:49:29.558Z</time>
      </trkpt>
      <trkpt lat="51.617073" lon="7.358968">
        <ele>71.123519</ele>
        <time>2026-08-31T11:49:47.261Z</time>
      </trkpt>
      <trkpt lat="51.616938" lon="7.358059">
        <ele>71.156082</ele>
        <time>2026-08-31T11:50:00.868Z</time>
      </trkpt>
      <trkpt lat="51.616717" lon="7.355889">
        <ele>71.476726</ele>
        <time>2026-08-31T11:50:33.097Z</time>
      </trkpt>
      <trkpt lat="51.616696" lon="7.355312">
        <ele>71.537046</ele>
        <time>2026-08-31T11:50:41.245Z</time>
      </trkpt>
      <trkpt lat="51.616622" lon="7.354867">
        <ele>71.584017</ele>
        <time>2026-08-31T11:50:47.676Z</time>
      </trkpt>
      <trkpt lat="51.616439" lon="7.352815">
        <ele>71.745924</ele>
        <time>2026-08-31T11:51:17.076Z</time>
      </trkpt>
      <trkpt lat="51.616422" lon="7.352246">
        <ele>71.650314</ele>
        <time>2026-08-31T11:51:25.197Z</time>
      </trkpt>
      <trkpt lat="51.616431" lon="7.350943">
        <ele>71.431609</ele>
        <time>2026-08-31T11:51:42.727Z</time>
      </trkpt>
      <trkpt lat="51.616478" lon="7.347924">
        <ele>70.447155</ele>
        <time>2026-08-31T11:52:20.026Z</time>
      </trkpt>
      <trkpt lat="51.616502" lon="7.346947">
        <ele>70.118484</ele>
        <time>2026-08-31T11:52:32.565Z</time>
      </trkpt>
      <trkpt lat="51.616549" lon="7.346159">
        <ele>69.963307</ele>
        <time>2026-08-31T11:52:42.985Z</time>
      </trkpt>
      <trkpt lat="51.616682" lon="7.345199">
        <ele>69.770499</ele>
        <time>2026-08-31T11:52:56.077Z</time>
      </trkpt>
      <trkpt lat="51.616677" lon="7.345114">
        <ele>69.753762</ele>
        <time>2026-08-31T11:52:57.202Z</time>
      </trkpt>
      <trkpt lat="51.617037" lon="7.342675">
        <ele>69.181076</ele>
        <time>2026-08-31T11:53:29.737Z</time>
      </trkpt>
      <trkpt lat="51.617131" lon="7.342026">
        <ele>69.019160</ele>
        <time>2026-08-31T11:53:38.249Z</time>
      </trkpt>
      <trkpt lat="51.617233" lon="7.341279">
        <ele>68.819932</ele>
        <time>2026-08-31T11:53:48.172Z</time>
      </trkpt>
      <trkpt lat="51.617308" lon="7.340800">
        <ele>68.674999</ele>
        <time>2026-08-31T11:53:54.789Z</time>
      </trkpt>
      <trkpt lat="51.617518" lon="7.339776">
        <ele>68.358605</ele>
        <time>2026-08-31T11:54:09.048Z</time>
      </trkpt>
      <trkpt lat="51.617707" lon="7.339143">
        <ele>68.152534</ele>
        <time>2026-08-31T11:54:17.940Z</time>
      </trkpt>
      <trkpt lat="51.617998" lon="7.338413">
        <ele>67.590368</ele>
        <time>2026-08-31T11:54:28.532Z</time>
      </trkpt>
      <trkpt lat="51.618163" lon="7.338062">
        <ele>67.196238</ele>
        <time>2026-08-31T11:54:33.676Z</time>
      </trkpt>
      <trkpt lat="51.618539" lon="7.337402">
        <ele>66.394354</ele>
        <time>2026-08-31T11:54:43.684Z</time>
      </trkpt>
      <trkpt lat="51.619116" lon="7.336395">
        <ele>65.119927</ele>
        <time>2026-08-31T11:54:59.017Z</time>
      </trkpt>
      <trkpt lat="51.619378" lon="7.335861">
        <ele>64.409333</ele>
        <time>2026-08-31T11:55:06.621Z</time>
      </trkpt>
      <trkpt lat="51.619578" lon="7.335230">
        <ele>63.669654</ele>
        <time>2026-08-31T11:55:14.330Z</time>
      </trkpt>
      <trkpt lat="51.619662" lon="7.334598">
        <ele>62.994862</ele>
        <time>2026-08-31T11:55:21.213Z</time>
      </trkpt>
      <trkpt lat="51.619619" lon="7.333909">
        <ele>62.454822</ele>
        <time>2026-08-31T11:55:29.374Z</time>
      </trkpt>
      <trkpt lat="51.619553" lon="7.333583">
        <ele>62.510810</ele>
        <time>2026-08-31T11:55:33.604Z</time>
      </trkpt>
      <trkpt lat="51.619450" lon="7.333287">
        <ele>62.566214</ele>
        <time>2026-08-31T11:55:38.029Z</time>
      </trkpt>
      <trkpt lat="51.619395" lon="7.333099">
        <ele>62.600148</ele>
        <time>2026-08-31T11:55:40.986Z</time>
      </trkpt>
      <trkpt lat="51.619213" lon="7.332508">
        <ele>62.707865</ele>
        <time>2026-08-31T11:55:50.793Z</time>
      </trkpt>
      <trkpt lat="51.619080" lon="7.331996">
        <ele>62.798487</ele>
        <time>2026-08-31T11:55:59.092Z</time>
      </trkpt>
      <trkpt lat="51.618960" lon="7.331561">
        <ele>62.876210</ele>
        <time>2026-08-31T11:56:07.343Z</time>
      </trkpt>
      <trkpt lat="51.618863" lon="7.331254">
        <ele>63.048495</ele>
        <time>2026-08-31T11:56:13.854Z</time>
      </trkpt>
      <trkpt lat="51.618714" lon="7.330890">
        <ele>63.401026</ele>
        <time>2026-08-31T11:56:21.696Z</time>
      </trkpt>
      <trkpt lat="51.618599" lon="7.330689">
        <ele>63.622032</ele>
        <time>2026-08-31T11:56:26.431Z</time>
      </trkpt>
      <trkpt lat="51.618480" lon="7.330488">
        <ele>63.846600</ele>
        <time>2026-08-31T11:56:31.326Z</time>
      </trkpt>
      <trkpt lat="51.618268" lon="7.330292">
        <ele>64.164940</ele>
        <time>2026-08-31T11:56:38.201Z</time>
      </trkpt>
      <trkpt lat="51.617988" lon="7.329907">
        <ele>64.644393</ele>
        <time>2026-08-31T11:56:47.834Z</time>
      </trkpt>
      <trkpt lat="51.617944" lon="7.329792">
        <ele>64.753619</ele>
        <time>2026-08-31T11:56:50.327Z</time>
      </trkpt>
      <trkpt lat="51.617912" lon="7.329605">
        <ele>64.910463</ele>
        <time>2026-08-31T11:56:53.870Z</time>
      </trkpt>
      <trkpt lat="51.617911" lon="7.329471">
        <ele>65.018823</ele>
        <time>2026-08-31T11:56:56.321Z</time>
      </trkpt>
      <trkpt lat="51.618058" lon="7.328835">
        <ele>65.168343</ele>
        <time>2026-08-31T11:57:09.014Z</time>
      </trkpt>
      <trkpt lat="51.618068" lon="7.328797">
        <ele>65.160354</ele>
        <time>2026-08-31T11:57:09.684Z</time>
      </trkpt>
      <trkpt lat="51.618157" lon="7.328108">
        <ele>65.024143</ele>
        <time>2026-08-31T11:57:20.261Z</time>
      </trkpt>
      <trkpt lat="51.618175" lon="7.327923">
        <ele>64.987899</ele>
        <time>2026-08-31T11:57:22.780Z</time>
      </trkpt>
      <trkpt lat="51.618308" lon="7.326514">
        <ele>64.712054</ele>
        <time>2026-08-31T11:57:46.218Z</time>
      </trkpt>
      <trkpt lat="51.618367" lon="7.325925">
        <ele>64.049160</ele>
        <time>2026-08-31T11:57:55.449Z</time>
      </trkpt>
      <trkpt lat="51.618477" lon="7.324799">
        <ele>62.459032</ele>
        <time>2026-08-31T11:58:11.427Z</time>
      </trkpt>
      <trkpt lat="51.618527" lon="7.324200">
        <ele>61.615892</ele>
        <time>2026-08-31T11:58:19.752Z</time>
      </trkpt>
      <trkpt lat="51.618543" lon="7.324056">
        <ele>61.411817</ele>
        <time>2026-08-31T11:58:21.853Z</time>
      </trkpt>
      <trkpt lat="51.618609" lon="7.323630">
        <ele>60.799314</ele>
        <time>2026-08-31T11:58:28.331Z</time>
      </trkpt>
      <trkpt lat="51.618598" lon="7.323460">
        <ele>60.643070</ele>
        <time>2026-08-31T11:58:31.003Z</time>
      </trkpt>
      <trkpt lat="51.618886" lon="7.322692">
        <ele>60.635556</ele>
        <time>2026-08-31T11:58:43.062Z</time>
      </trkpt>
      <trkpt lat="51.618970" lon="7.322372">
        <ele>60.632646</ele>
        <time>2026-08-31T11:58:47.970Z</time>
      </trkpt>
      <trkpt lat="51.618984" lon="7.322156">
        <ele>60.630828</ele>
        <time>2026-08-31T11:58:51.241Z</time>
      </trkpt>
      <trkpt lat="51.618966" lon="7.322007">
        <ele>60.629556</ele>
        <time>2026-08-31T11:58:53.598Z</time>
      </trkpt>
      <trkpt lat="51.618901" lon="7.321717">
        <ele>60.626974</ele>
        <time>2026-08-31T11:58:59.063Z</time>
      </trkpt>
      <trkpt lat="51.618836" lon="7.321454">
        <ele>60.624603</ele>
        <time>2026-08-31T11:59:04.026Z</time>
      </trkpt>
      <trkpt lat="51.618797" lon="7.321139">
        <ele>60.621913</ele>
        <time>2026-08-31T11:59:09.324Z</time>
      </trkpt>
      <trkpt lat="51.617874" lon="7.321044">
        <ele>60.193869</ele>
        <time>2026-08-31T11:59:28.572Z</time>
      </trkpt>
      <trkpt lat="51.617410" lon="7.321018">
        <ele>59.923856</ele>
        <time>2026-08-31T11:59:43.213Z</time>
      </trkpt>
      <trkpt lat="51.616051" lon="7.319718">
        <ele>59.377513</ele>
        <time>2026-08-31T12:00:40.795Z</time>
      </trkpt>
      <trkpt lat="51.615632" lon="7.319508">
        <ele>59.289665</ele>
        <time>2026-08-31T12:00:57.458Z</time>
      </trkpt>
      <trkpt lat="51.612748" lon="7.316685">
        <ele>57.558439</ele>
        <time>2026-08-31T12:02:14.210Z</time>
      </trkpt>
      <trkpt lat="51.611681" lon="7.315417">
        <ele>56.898430</ele>
        <time>2026-08-31T12:02:44.924Z</time>
      </trkpt>
      <trkpt lat="51.609436" lon="7.312664">
        <ele>55.953443</ele>
        <time>2026-08-31T12:03:50.141Z</time>
      </trkpt>
      <trkpt lat="51.608365" lon="7.311412">
        <ele>56.649363</ele>
        <time>2026-08-31T12:04:25.878Z</time>
      </trkpt>
      <trkpt lat="51.606646" lon="7.309576">
        <ele>57.073060</ele>
        <time>2026-08-31T12:05:14.737Z</time>
      </trkpt>
      <trkpt lat="51.606770" lon="7.309253">
        <ele>57.092750</ele>
        <time>2026-08-31T12:05:20.262Z</time>
      </trkpt>
      <trkpt lat="51.606440" lon="7.308897">
        <ele>57.095162</ele>
        <time>2026-08-31T12:05:28.776Z</time>
      </trkpt>
      <trkpt lat="51.606373" lon="7.308825">
        <ele>57.095162</ele>
        <time>2026-08-31T12:05:30.584Z</time>
      </trkpt>
      <trkpt lat="51.606267" lon="7.308711">
        <ele>57.095162</ele>
        <time>2026-08-31T12:05:33.542Z</time>
      </trkpt>
      <trkpt lat="51.605942" lon="7.308363">
        <ele>57.095162</ele>
        <time>2026-08-31T12:05:42.423Z</time>
      </trkpt>
      <trkpt lat="51.605841" lon="7.308251">
        <ele>57.095162</ele>
        <time>2026-08-31T12:05:44.981Z</time>
      </trkpt>
      <trkpt lat="51.605806" lon="7.308214">
        <ele>57.095162</ele>
        <time>2026-08-31T12:05:45.856Z</time>
      </trkpt>
      <trkpt lat="51.605624" lon="7.308015">
        <ele>57.095162</ele>
        <time>2026-08-31T12:05:50.320Z</time>
      </trkpt>
      <trkpt lat="51.605563" lon="7.307948">
        <ele>57.095162</ele>
        <time>2026-08-31T12:05:52.019Z</time>
      </trkpt>
      <trkpt lat="51.605404" lon="7.307770">
        <ele>57.095162</ele>
        <time>2026-08-31T12:05:56.230Z</time>
      </trkpt>
      <trkpt lat="51.605326" lon="7.307828">
        <ele>57.095162</ele>
        <time>2026-08-31T12:05:58.601Z</time>
      </trkpt>
      <trkpt lat="51.605282" lon="7.307779">
        <ele>57.095162</ele>
        <time>2026-08-31T12:06:00.181Z</time>
      </trkpt>
    </trkseg>
  </trk>
</gpx>